<?xml version="1.0" encoding="UTF-8" standalone="no" ?>
<gpx xmlns="http://www.topografix.com/GPX/1/1" xmlns:xsi="http://www.w3.org/2001/XMLSchema-instance" xsi:schemaLocation="http://www.topografix.com/GPX/1/1 http://www.topografix.com/GPX/1/1/gpx.xsd" version="1.1" creator="VisuGPX - https://www.visugpx.com">
  <metadata>
    <name>8 mai 2026 route 76 km Modifié</name>
  </metadata>
  <trk>
    <name><![CDATA[8 mai 2026 km 76 Modifié]]></name>
    <trkseg>
      <trkpt lat="50.69947" lon="2.77051">
        <ele>18</ele>
        <time>2026-03-05T17:14:37Z</time>
      </trkpt>
      <trkpt lat="50.69942" lon="2.77031">
        <ele>18</ele>
        <time>2026-03-05T17:14:39Z</time>
      </trkpt>
      <trkpt lat="50.69854" lon="2.7648">
        <ele>16</ele>
        <time>2026-03-05T17:15:43Z</time>
      </trkpt>
      <trkpt lat="50.69821" lon="2.76184">
        <ele>18</ele>
        <time>2026-03-05T17:16:17Z</time>
      </trkpt>
      <trkpt lat="50.69808" lon="2.76094">
        <ele>16</ele>
        <time>2026-03-05T17:16:28Z</time>
      </trkpt>
      <trkpt lat="50.6974" lon="2.76012">
        <ele>17</ele>
        <time>2026-03-05T17:16:43Z</time>
      </trkpt>
      <trkpt lat="50.6971" lon="2.75965">
        <ele>17</ele>
        <time>2026-03-05T17:16:50Z</time>
      </trkpt>
      <trkpt lat="50.69643" lon="2.75806">
        <ele>16</ele>
        <time>2026-03-05T17:17:12Z</time>
      </trkpt>
      <trkpt lat="50.69622" lon="2.75765">
        <ele>16</ele>
        <time>2026-03-05T17:17:18Z</time>
      </trkpt>
      <trkpt lat="50.696" lon="2.75735">
        <ele>16</ele>
        <time>2026-03-05T17:17:23Z</time>
      </trkpt>
      <trkpt lat="50.69577" lon="2.7571">
        <ele>16</ele>
        <time>2026-03-05T17:17:28Z</time>
      </trkpt>
      <trkpt lat="50.6951" lon="2.75662">
        <ele>19</ele>
        <time>2026-03-05T17:17:41Z</time>
      </trkpt>
      <trkpt lat="50.69491" lon="2.75652">
        <ele>19</ele>
        <time>2026-03-05T17:17:45Z</time>
      </trkpt>
      <trkpt lat="50.69459" lon="2.7563">
        <ele>18</ele>
        <time>2026-03-05T17:17:51Z</time>
      </trkpt>
      <trkpt lat="50.69695" lon="2.75128">
        <ele>17</ele>
        <time>2026-03-05T17:19:01Z</time>
      </trkpt>
      <trkpt lat="50.69716" lon="2.75068">
        <ele>17</ele>
        <time>2026-03-05T17:19:09Z</time>
      </trkpt>
      <trkpt lat="50.69729" lon="2.75002">
        <ele>16</ele>
        <time>2026-03-05T17:19:17Z</time>
      </trkpt>
      <trkpt lat="50.69733" lon="2.74939">
        <ele>16</ele>
        <time>2026-03-05T17:19:24Z</time>
      </trkpt>
      <trkpt lat="50.69731" lon="2.74894">
        <ele>16</ele>
        <time>2026-03-05T17:19:29Z</time>
      </trkpt>
      <trkpt lat="50.69703" lon="2.7463">
        <ele>16</ele>
        <time>2026-03-05T17:19:59Z</time>
      </trkpt>
      <trkpt lat="50.6968" lon="2.74472">
        <ele>18</ele>
        <time>2026-03-05T17:20:18Z</time>
      </trkpt>
      <trkpt lat="50.69665" lon="2.74388">
        <ele>18</ele>
        <time>2026-03-05T17:20:27Z</time>
      </trkpt>
      <trkpt lat="50.69656" lon="2.74317">
        <ele>18</ele>
        <time>2026-03-05T17:20:36Z</time>
      </trkpt>
      <trkpt lat="50.69639" lon="2.74223">
        <ele>17</ele>
        <time>2026-03-05T17:20:47Z</time>
      </trkpt>
      <trkpt lat="50.69577" lon="2.74036">
        <ele>17</ele>
        <time>2026-03-05T17:21:10Z</time>
      </trkpt>
      <trkpt lat="50.69553" lon="2.73907">
        <ele>17</ele>
        <time>2026-03-05T17:21:26Z</time>
      </trkpt>
      <trkpt lat="50.69512" lon="2.73785">
        <ele>16</ele>
        <time>2026-03-05T17:21:41Z</time>
      </trkpt>
      <trkpt lat="50.69496" lon="2.73728">
        <ele>16</ele>
        <time>2026-03-05T17:21:48Z</time>
      </trkpt>
      <trkpt lat="50.69473" lon="2.73631">
        <ele>16</ele>
        <time>2026-03-05T17:22:00Z</time>
      </trkpt>
      <trkpt lat="50.69446" lon="2.73545">
        <ele>17</ele>
        <time>2026-03-05T17:22:11Z</time>
      </trkpt>
      <trkpt lat="50.69321" lon="2.73253">
        <ele>18</ele>
        <time>2026-03-05T17:22:50Z</time>
      </trkpt>
      <trkpt lat="50.69219" lon="2.72946">
        <ele>17</ele>
        <time>2026-03-05T17:23:29Z</time>
      </trkpt>
      <trkpt lat="50.6915" lon="2.72622">
        <ele>17</ele>
        <time>2026-03-05T17:24:08Z</time>
      </trkpt>
      <trkpt lat="50.6914" lon="2.72608">
        <ele>17</ele>
        <time>2026-03-05T17:24:10Z</time>
      </trkpt>
      <trkpt lat="50.69123" lon="2.72601">
        <ele>17</ele>
        <time>2026-03-05T17:24:13Z</time>
      </trkpt>
      <trkpt lat="50.6906" lon="2.72591">
        <ele>17</ele>
        <time>2026-03-05T17:24:25Z</time>
      </trkpt>
      <trkpt lat="50.69052" lon="2.72464">
        <ele>17</ele>
        <time>2026-03-05T17:24:39Z</time>
      </trkpt>
      <trkpt lat="50.69046" lon="2.72416">
        <ele>17</ele>
        <time>2026-03-05T17:24:45Z</time>
      </trkpt>
      <trkpt lat="50.69012" lon="2.72245">
        <ele>15</ele>
        <time>2026-03-05T17:25:05Z</time>
      </trkpt>
      <trkpt lat="50.69011" lon="2.72207">
        <ele>16</ele>
        <time>2026-03-05T17:25:09Z</time>
      </trkpt>
      <trkpt lat="50.69022" lon="2.72154">
        <ele>16</ele>
        <time>2026-03-05T17:25:15Z</time>
      </trkpt>
      <trkpt lat="50.69061" lon="2.71852">
        <ele>17</ele>
        <time>2026-03-05T17:25:50Z</time>
      </trkpt>
      <trkpt lat="50.69064" lon="2.71799">
        <ele>17</ele>
        <time>2026-03-05T17:25:56Z</time>
      </trkpt>
      <trkpt lat="50.69076" lon="2.71389">
        <ele>17</ele>
        <time>2026-03-05T17:26:42Z</time>
      </trkpt>
      <trkpt lat="50.69077" lon="2.7132">
        <ele>18</ele>
        <time>2026-03-05T17:26:50Z</time>
      </trkpt>
      <trkpt lat="50.69074" lon="2.71295">
        <ele>17</ele>
        <time>2026-03-05T17:26:53Z</time>
      </trkpt>
      <trkpt lat="50.69081" lon="2.71288">
        <ele>17</ele>
        <time>2026-03-05T17:26:55Z</time>
      </trkpt>
      <trkpt lat="50.69078" lon="2.71276">
        <ele>17</ele>
        <time>2026-03-05T17:26:56Z</time>
      </trkpt>
      <trkpt lat="50.69079" lon="2.71248">
        <ele>17</ele>
        <time>2026-03-05T17:26:59Z</time>
      </trkpt>
      <trkpt lat="50.69106" lon="2.70683">
        <ele>15</ele>
        <time>2026-03-05T17:28:03Z</time>
      </trkpt>
      <trkpt lat="50.69141" lon="2.69848">
        <ele>17</ele>
        <time>2026-03-05T17:29:37Z</time>
      </trkpt>
      <trkpt lat="50.69241" lon="2.68913">
        <ele>17</ele>
        <time>2026-03-05T17:31:24Z</time>
      </trkpt>
      <trkpt lat="50.69248" lon="2.68866">
        <ele>17</ele>
        <time>2026-03-05T17:31:30Z</time>
      </trkpt>
      <trkpt lat="50.6935" lon="2.68449">
        <ele>16</ele>
        <time>2026-03-05T17:32:20Z</time>
      </trkpt>
      <trkpt lat="50.6936" lon="2.68453">
        <ele>16</ele>
        <time>2026-03-05T17:32:22Z</time>
      </trkpt>
      <trkpt lat="50.69599" lon="2.68453">
        <ele>17</ele>
        <time>2026-03-05T17:33:04Z</time>
      </trkpt>
      <trkpt lat="50.69581" lon="2.68284">
        <ele>18</ele>
        <time>2026-03-05T17:33:24Z</time>
      </trkpt>
      <trkpt lat="50.69607" lon="2.68183">
        <ele>16</ele>
        <time>2026-03-05T17:33:36Z</time>
      </trkpt>
      <trkpt lat="50.69628" lon="2.68141">
        <ele>16</ele>
        <time>2026-03-05T17:33:42Z</time>
      </trkpt>
      <trkpt lat="50.69778" lon="2.67924">
        <ele>17</ele>
        <time>2026-03-05T17:34:18Z</time>
      </trkpt>
      <trkpt lat="50.69829" lon="2.67839">
        <ele>16</ele>
        <time>2026-03-05T17:34:31Z</time>
      </trkpt>
      <trkpt lat="50.69866" lon="2.67765">
        <ele>19</ele>
        <time>2026-03-05T17:34:42Z</time>
      </trkpt>
      <trkpt lat="50.69889" lon="2.67713">
        <ele>19</ele>
        <time>2026-03-05T17:34:49Z</time>
      </trkpt>
      <trkpt lat="50.69895" lon="2.67684">
        <ele>18</ele>
        <time>2026-03-05T17:34:53Z</time>
      </trkpt>
      <trkpt lat="50.69898" lon="2.67621">
        <ele>17</ele>
        <time>2026-03-05T17:35:00Z</time>
      </trkpt>
      <trkpt lat="50.69937" lon="2.67126">
        <ele>17</ele>
        <time>2026-03-05T17:35:56Z</time>
      </trkpt>
      <trkpt lat="50.69961" lon="2.66902">
        <ele>17</ele>
        <time>2026-03-05T17:36:22Z</time>
      </trkpt>
      <trkpt lat="50.69971" lon="2.66833">
        <ele>17</ele>
        <time>2026-03-05T17:36:30Z</time>
      </trkpt>
      <trkpt lat="50.69993" lon="2.66712">
        <ele>18</ele>
        <time>2026-03-05T17:36:44Z</time>
      </trkpt>
      <trkpt lat="50.70012" lon="2.66634">
        <ele>17</ele>
        <time>2026-03-05T17:36:53Z</time>
      </trkpt>
      <trkpt lat="50.701" lon="2.66383">
        <ele>18</ele>
        <time>2026-03-05T17:37:25Z</time>
      </trkpt>
      <trkpt lat="50.70104" lon="2.66376">
        <ele>18</ele>
        <time>2026-03-05T17:37:27Z</time>
      </trkpt>
      <trkpt lat="50.70133" lon="2.66358">
        <ele>18</ele>
        <time>2026-03-05T17:37:32Z</time>
      </trkpt>
      <trkpt lat="50.70144" lon="2.66345">
        <ele>18</ele>
        <time>2026-03-05T17:37:35Z</time>
      </trkpt>
      <trkpt lat="50.70159" lon="2.6631">
        <ele>18</ele>
        <time>2026-03-05T17:37:39Z</time>
      </trkpt>
      <trkpt lat="50.70212" lon="2.66143">
        <ele>19</ele>
        <time>2026-03-05T17:38:00Z</time>
      </trkpt>
      <trkpt lat="50.70241" lon="2.66021">
        <ele>19</ele>
        <time>2026-03-05T17:38:12Z</time>
      </trkpt>
      <trkpt lat="50.7012" lon="2.65857">
        <ele>19</ele>
        <time>2026-03-05T17:38:15Z</time>
      </trkpt>
      <trkpt lat="50.70032" lon="2.65735">
        <ele>18</ele>
        <time>2026-03-05T17:38:21Z</time>
      </trkpt>
      <trkpt lat="50.69888" lon="2.6554">
        <ele>18</ele>
        <time>2026-03-05T17:38:25Z</time>
      </trkpt>
      <trkpt lat="50.69816" lon="2.65436">
        <ele>18</ele>
        <time>2026-03-05T17:38:30Z</time>
      </trkpt>
      <trkpt lat="50.69699" lon="2.65319">
        <ele>18</ele>
        <time>2026-03-05T17:38:34Z</time>
      </trkpt>
      <trkpt lat="50.69637" lon="2.65111">
        <ele>18</ele>
        <time>2026-03-05T17:38:37Z</time>
      </trkpt>
      <trkpt lat="50.69566" lon="2.64884">
        <ele>18</ele>
        <time>2026-03-05T17:38:42Z</time>
      </trkpt>
      <trkpt lat="50.69496" lon="2.64461">
        <ele>17</ele>
        <time>2026-03-05T17:39:04Z</time>
      </trkpt>
      <trkpt lat="50.69606" lon="2.64385">
        <ele>18</ele>
        <time>2026-03-05T17:39:18Z</time>
      </trkpt>
      <trkpt lat="50.69764" lon="2.64291">
        <ele>17</ele>
        <time>2026-03-05T17:39:46Z</time>
      </trkpt>
      <trkpt lat="50.69703" lon="2.64133">
        <ele>16</ele>
        <time>2026-03-05T17:40:24Z</time>
      </trkpt>
      <trkpt lat="50.69676" lon="2.63961">
        <ele>17</ele>
        <time>2026-03-05T17:40:29Z</time>
      </trkpt>
      <trkpt lat="50.69516" lon="2.63532">
        <ele>16</ele>
        <time>2026-03-05T17:40:30Z</time>
      </trkpt>
      <trkpt lat="50.69479" lon="2.63131">
        <ele>16</ele>
        <time>2026-03-05T17:40:31Z</time>
      </trkpt>
      <trkpt lat="50.69465" lon="2.62456">
        <ele>16</ele>
        <time>2026-03-05T17:40:34Z</time>
      </trkpt>
      <trkpt lat="50.69452" lon="2.62366">
        <ele>19</ele>
        <time>2026-03-05T17:40:56Z</time>
      </trkpt>
      <trkpt lat="50.69724" lon="2.62237">
        <ele>19</ele>
        <time>2026-03-05T17:42:13Z</time>
      </trkpt>
      <trkpt lat="50.69832" lon="2.62171">
        <ele>18</ele>
        <time>2026-03-05T17:42:15Z</time>
      </trkpt>
      <trkpt lat="50.70161" lon="2.61972">
        <ele>18</ele>
        <time>2026-03-05T17:42:18Z</time>
      </trkpt>
      <trkpt lat="50.70301" lon="2.61894">
        <ele>18</ele>
        <time>2026-03-05T17:42:32Z</time>
      </trkpt>
      <trkpt lat="50.70322" lon="2.61874">
        <ele>17</ele>
        <time>2026-03-05T17:49:21Z</time>
      </trkpt>
      <trkpt lat="50.70338" lon="2.61775">
        <ele>17</ele>
        <time>2026-03-05T17:49:33Z</time>
      </trkpt>
      <trkpt lat="50.70366" lon="2.61588">
        <ele>15</ele>
        <time>2026-03-05T17:49:54Z</time>
      </trkpt>
      <trkpt lat="50.70436" lon="2.6105">
        <ele>16</ele>
        <time>2026-03-05T17:50:56Z</time>
      </trkpt>
      <trkpt lat="50.70468" lon="2.6084">
        <ele>17</ele>
        <time>2026-03-05T17:51:21Z</time>
      </trkpt>
      <trkpt lat="50.70475" lon="2.60823">
        <ele>17</ele>
        <time>2026-03-05T17:51:23Z</time>
      </trkpt>
      <trkpt lat="50.70494" lon="2.60801">
        <ele>17</ele>
        <time>2026-03-05T17:51:27Z</time>
      </trkpt>
      <trkpt lat="50.70726" lon="2.60621">
        <ele>18</ele>
        <time>2026-03-05T17:52:13Z</time>
      </trkpt>
      <trkpt lat="50.7081" lon="2.60562">
        <ele>18</ele>
        <time>2026-03-05T17:52:29Z</time>
      </trkpt>
      <trkpt lat="50.70815" lon="2.60557">
        <ele>18</ele>
        <time>2026-03-05T17:52:30Z</time>
      </trkpt>
      <trkpt lat="50.70821" lon="2.60543">
        <ele>18</ele>
        <time>2026-03-05T17:52:32Z</time>
      </trkpt>
      <trkpt lat="50.70822" lon="2.60502">
        <ele>17</ele>
        <time>2026-03-05T17:52:37Z</time>
      </trkpt>
      <trkpt lat="50.70818" lon="2.60417">
        <ele>18</ele>
        <time>2026-03-05T17:52:47Z</time>
      </trkpt>
      <trkpt lat="50.70793" lon="2.602">
        <ele>17</ele>
        <time>2026-03-05T17:53:11Z</time>
      </trkpt>
      <trkpt lat="50.70767" lon="2.59932">
        <ele>19</ele>
        <time>2026-03-05T17:53:42Z</time>
      </trkpt>
      <trkpt lat="50.70774" lon="2.59914">
        <ele>19</ele>
        <time>2026-03-05T17:53:44Z</time>
      </trkpt>
      <trkpt lat="50.70875" lon="2.59848">
        <ele>18</ele>
        <time>2026-03-05T17:54:04Z</time>
      </trkpt>
      <trkpt lat="50.71181" lon="2.59637">
        <ele>18</ele>
        <time>2026-03-05T17:55:03Z</time>
      </trkpt>
      <trkpt lat="50.71246" lon="2.59595">
        <ele>18</ele>
        <time>2026-03-05T17:55:16Z</time>
      </trkpt>
      <trkpt lat="50.71425" lon="2.59486">
        <ele>16</ele>
        <time>2026-03-05T17:55:50Z</time>
      </trkpt>
      <trkpt lat="50.71484" lon="2.59436">
        <ele>15</ele>
        <time>2026-03-05T17:56:02Z</time>
      </trkpt>
      <trkpt lat="50.71813" lon="2.59142">
        <ele>18</ele>
        <time>2026-03-05T17:57:09Z</time>
      </trkpt>
      <trkpt lat="50.71832" lon="2.59116">
        <ele>18</ele>
        <time>2026-03-05T17:57:13Z</time>
      </trkpt>
      <trkpt lat="50.71858" lon="2.59064">
        <ele>18</ele>
        <time>2026-03-05T17:57:21Z</time>
      </trkpt>
      <trkpt lat="50.71873" lon="2.59054">
        <ele>18</ele>
        <time>2026-03-05T17:57:24Z</time>
      </trkpt>
      <trkpt lat="50.71896" lon="2.5906">
        <ele>18</ele>
        <time>2026-03-05T17:57:28Z</time>
      </trkpt>
      <trkpt lat="50.71906" lon="2.59059">
        <ele>18</ele>
        <time>2026-03-05T17:57:30Z</time>
      </trkpt>
      <trkpt lat="50.71929" lon="2.59043">
        <ele>18</ele>
        <time>2026-03-05T17:57:34Z</time>
      </trkpt>
      <trkpt lat="50.72015" lon="2.58959">
        <ele>18</ele>
        <time>2026-03-05T17:57:52Z</time>
      </trkpt>
      <trkpt lat="50.72108" lon="2.58876">
        <ele>17</ele>
        <time>2026-03-05T17:58:11Z</time>
      </trkpt>
      <trkpt lat="50.72149" lon="2.58836">
        <ele>17</ele>
        <time>2026-03-05T17:58:20Z</time>
      </trkpt>
      <trkpt lat="50.72166" lon="2.58785">
        <ele>17</ele>
        <time>2026-03-05T17:58:26Z</time>
      </trkpt>
      <trkpt lat="50.72199" lon="2.58709">
        <ele>17</ele>
        <time>2026-03-05T17:58:37Z</time>
      </trkpt>
      <trkpt lat="50.72214" lon="2.58681">
        <ele>17</ele>
        <time>2026-03-05T17:58:41Z</time>
      </trkpt>
      <trkpt lat="50.72241" lon="2.58646">
        <ele>17</ele>
        <time>2026-03-05T17:58:47Z</time>
      </trkpt>
      <trkpt lat="50.72277" lon="2.58617">
        <ele>18</ele>
        <time>2026-03-05T17:58:54Z</time>
      </trkpt>
      <trkpt lat="50.72298" lon="2.58607">
        <ele>18</ele>
        <time>2026-03-05T17:58:58Z</time>
      </trkpt>
      <trkpt lat="50.72454" lon="2.58561">
        <ele>18</ele>
        <time>2026-03-05T17:59:26Z</time>
      </trkpt>
      <trkpt lat="50.7256" lon="2.58533">
        <ele>19</ele>
        <time>2026-03-05T17:59:45Z</time>
      </trkpt>
      <trkpt lat="50.72745" lon="2.58493">
        <ele>20</ele>
        <time>2026-03-05T18:00:19Z</time>
      </trkpt>
      <trkpt lat="50.72758" lon="2.58488">
        <ele>20</ele>
        <time>2026-03-05T18:00:21Z</time>
      </trkpt>
      <trkpt lat="50.72782" lon="2.58469">
        <ele>19</ele>
        <time>2026-03-05T18:00:26Z</time>
      </trkpt>
      <trkpt lat="50.72823" lon="2.58419">
        <ele>18</ele>
        <time>2026-03-05T18:00:35Z</time>
      </trkpt>
      <trkpt lat="50.7289" lon="2.58345">
        <ele>21</ele>
        <time>2026-03-05T18:00:50Z</time>
      </trkpt>
      <trkpt lat="50.72916" lon="2.58328">
        <ele>22</ele>
        <time>2026-03-05T18:00:55Z</time>
      </trkpt>
      <trkpt lat="50.72965" lon="2.58323">
        <ele>25</ele>
        <time>2026-03-05T18:01:03Z</time>
      </trkpt>
      <trkpt lat="50.73058" lon="2.58324">
        <ele>30</ele>
        <time>2026-03-05T18:01:20Z</time>
      </trkpt>
      <trkpt lat="50.73077" lon="2.58321">
        <ele>30</ele>
        <time>2026-03-05T18:01:23Z</time>
      </trkpt>
      <trkpt lat="50.73116" lon="2.58321">
        <ele>30</ele>
        <time>2026-03-05T18:01:30Z</time>
      </trkpt>
      <trkpt lat="50.73119" lon="2.58324">
        <ele>30</ele>
        <time>2026-03-05T18:01:31Z</time>
      </trkpt>
      <trkpt lat="50.73122" lon="2.58335">
        <ele>31</ele>
        <time>2026-03-05T18:01:32Z</time>
      </trkpt>
      <trkpt lat="50.73121" lon="2.58423">
        <ele>33</ele>
        <time>2026-03-05T18:01:42Z</time>
      </trkpt>
      <trkpt lat="50.73132" lon="2.58533">
        <ele>34</ele>
        <time>2026-03-05T18:01:55Z</time>
      </trkpt>
      <trkpt lat="50.73133" lon="2.5857">
        <ele>34</ele>
        <time>2026-03-05T18:01:59Z</time>
      </trkpt>
      <trkpt lat="50.7313" lon="2.58658">
        <ele>35</ele>
        <time>2026-03-05T18:02:09Z</time>
      </trkpt>
      <trkpt lat="50.73126" lon="2.58702">
        <ele>35</ele>
        <time>2026-03-05T18:02:14Z</time>
      </trkpt>
      <trkpt lat="50.7313" lon="2.58716">
        <ele>35</ele>
        <time>2026-03-05T18:02:16Z</time>
      </trkpt>
      <trkpt lat="50.73195" lon="2.58746">
        <ele>32</ele>
        <time>2026-03-05T18:02:28Z</time>
      </trkpt>
      <trkpt lat="50.73201" lon="2.58747">
        <ele>32</ele>
        <time>2026-03-05T18:02:29Z</time>
      </trkpt>
      <trkpt lat="50.73228" lon="2.58738">
        <ele>31</ele>
        <time>2026-03-05T18:02:34Z</time>
      </trkpt>
      <trkpt lat="50.73313" lon="2.58697">
        <ele>29</ele>
        <time>2026-03-05T18:02:49Z</time>
      </trkpt>
      <trkpt lat="50.73386" lon="2.58599">
        <ele>27</ele>
        <time>2026-03-05T18:03:06Z</time>
      </trkpt>
      <trkpt lat="50.7343" lon="2.58562">
        <ele>26</ele>
        <time>2026-03-05T18:03:15Z</time>
      </trkpt>
      <trkpt lat="50.73469" lon="2.58536">
        <ele>26</ele>
        <time>2026-03-05T18:03:23Z</time>
      </trkpt>
      <trkpt lat="50.73533" lon="2.58504">
        <ele>26</ele>
        <time>2026-03-05T18:03:35Z</time>
      </trkpt>
      <trkpt lat="50.73669" lon="2.58428">
        <ele>27</ele>
        <time>2026-03-05T18:04:00Z</time>
      </trkpt>
      <trkpt lat="50.73733" lon="2.58401">
        <ele>26</ele>
        <time>2026-03-05T18:04:12Z</time>
      </trkpt>
      <trkpt lat="50.73742" lon="2.58391">
        <ele>26</ele>
        <time>2026-03-05T18:04:14Z</time>
      </trkpt>
      <trkpt lat="50.73761" lon="2.58328">
        <ele>26</ele>
        <time>2026-03-05T18:04:22Z</time>
      </trkpt>
      <trkpt lat="50.73773" lon="2.58304">
        <ele>26</ele>
        <time>2026-03-05T18:04:25Z</time>
      </trkpt>
      <trkpt lat="50.7385" lon="2.58236">
        <ele>25</ele>
        <time>2026-03-05T18:04:41Z</time>
      </trkpt>
      <trkpt lat="50.73897" lon="2.58186">
        <ele>26</ele>
        <time>2026-03-05T18:04:51Z</time>
      </trkpt>
      <trkpt lat="50.73945" lon="2.58128">
        <ele>26</ele>
        <time>2026-03-05T18:05:02Z</time>
      </trkpt>
      <trkpt lat="50.73986" lon="2.58084">
        <ele>25</ele>
        <time>2026-03-05T18:05:11Z</time>
      </trkpt>
      <trkpt lat="50.74034" lon="2.58039">
        <ele>26</ele>
        <time>2026-03-05T18:05:21Z</time>
      </trkpt>
      <trkpt lat="50.74112" lon="2.57975">
        <ele>26</ele>
        <time>2026-03-05T18:05:36Z</time>
      </trkpt>
      <trkpt lat="50.74159" lon="2.57932">
        <ele>25</ele>
        <time>2026-03-05T18:05:46Z</time>
      </trkpt>
      <trkpt lat="50.74264" lon="2.57847">
        <ele>26</ele>
        <time>2026-03-05T18:06:07Z</time>
      </trkpt>
      <trkpt lat="50.74314" lon="2.57809">
        <ele>25</ele>
        <time>2026-03-05T18:06:17Z</time>
      </trkpt>
      <trkpt lat="50.74361" lon="2.57778">
        <ele>25</ele>
        <time>2026-03-05T18:06:26Z</time>
      </trkpt>
      <trkpt lat="50.74555" lon="2.57577">
        <ele>27</ele>
        <time>2026-03-05T18:07:07Z</time>
      </trkpt>
      <trkpt lat="50.74601" lon="2.57525">
        <ele>26</ele>
        <time>2026-03-05T18:07:17Z</time>
      </trkpt>
      <trkpt lat="50.7462" lon="2.57514">
        <ele>26</ele>
        <time>2026-03-05T18:07:21Z</time>
      </trkpt>
      <trkpt lat="50.74639" lon="2.57517">
        <ele>26</ele>
        <time>2026-03-05T18:07:24Z</time>
      </trkpt>
      <trkpt lat="50.74718" lon="2.57574">
        <ele>27</ele>
        <time>2026-03-05T18:07:40Z</time>
      </trkpt>
      <trkpt lat="50.74726" lon="2.57574">
        <ele>27</ele>
        <time>2026-03-05T18:07:41Z</time>
      </trkpt>
      <trkpt lat="50.74731" lon="2.57559">
        <ele>27</ele>
        <time>2026-03-05T18:07:43Z</time>
      </trkpt>
      <trkpt lat="50.74747" lon="2.57365">
        <ele>26</ele>
        <time>2026-03-05T18:08:05Z</time>
      </trkpt>
      <trkpt lat="50.74744" lon="2.57338">
        <ele>25</ele>
        <time>2026-03-05T18:08:08Z</time>
      </trkpt>
      <trkpt lat="50.74739" lon="2.5732">
        <ele>25</ele>
        <time>2026-03-05T18:08:10Z</time>
      </trkpt>
      <trkpt lat="50.74723" lon="2.57287">
        <ele>25</ele>
        <time>2026-03-05T18:08:15Z</time>
      </trkpt>
      <trkpt lat="50.747" lon="2.57253">
        <ele>26</ele>
        <time>2026-03-05T18:08:21Z</time>
      </trkpt>
      <trkpt lat="50.74693" lon="2.57238">
        <ele>25</ele>
        <time>2026-03-05T18:08:23Z</time>
      </trkpt>
      <trkpt lat="50.74695" lon="2.57221">
        <ele>25</ele>
        <time>2026-03-05T18:08:25Z</time>
      </trkpt>
      <trkpt lat="50.74729" lon="2.57163">
        <ele>23</ele>
        <time>2026-03-05T18:08:34Z</time>
      </trkpt>
      <trkpt lat="50.74735" lon="2.57143">
        <ele>23</ele>
        <time>2026-03-05T18:08:36Z</time>
      </trkpt>
      <trkpt lat="50.74745" lon="2.57091">
        <ele>23</ele>
        <time>2026-03-05T18:08:42Z</time>
      </trkpt>
      <trkpt lat="50.7476" lon="2.57069">
        <ele>23</ele>
        <time>2026-03-05T18:08:46Z</time>
      </trkpt>
      <trkpt lat="50.74842" lon="2.56975">
        <ele>25</ele>
        <time>2026-03-05T18:09:04Z</time>
      </trkpt>
      <trkpt lat="50.74923" lon="2.56906">
        <ele>27</ele>
        <time>2026-03-05T18:09:20Z</time>
      </trkpt>
      <trkpt lat="50.74973" lon="2.56869">
        <ele>28</ele>
        <time>2026-03-05T18:09:30Z</time>
      </trkpt>
      <trkpt lat="50.75008" lon="2.5685">
        <ele>28</ele>
        <time>2026-03-05T18:09:37Z</time>
      </trkpt>
      <trkpt lat="50.75103" lon="2.56807">
        <ele>29</ele>
        <time>2026-03-05T18:09:54Z</time>
      </trkpt>
      <trkpt lat="50.75119" lon="2.56802">
        <ele>29</ele>
        <time>2026-03-05T18:09:57Z</time>
      </trkpt>
      <trkpt lat="50.75136" lon="2.56801">
        <ele>30</ele>
        <time>2026-03-05T18:10:00Z</time>
      </trkpt>
      <trkpt lat="50.75176" lon="2.56793">
        <ele>30</ele>
        <time>2026-03-05T18:10:07Z</time>
      </trkpt>
      <trkpt lat="50.75218" lon="2.56775">
        <ele>31</ele>
        <time>2026-03-05T18:10:15Z</time>
      </trkpt>
      <trkpt lat="50.75223" lon="2.56759">
        <ele>31</ele>
        <time>2026-03-05T18:10:17Z</time>
      </trkpt>
      <trkpt lat="50.75232" lon="2.56532">
        <ele>28</ele>
        <time>2026-03-05T18:10:43Z</time>
      </trkpt>
      <trkpt lat="50.75232" lon="2.56314">
        <ele>27</ele>
        <time>2026-03-05T18:11:07Z</time>
      </trkpt>
      <trkpt lat="50.75242" lon="2.56034">
        <ele>28</ele>
        <time>2026-03-05T18:11:39Z</time>
      </trkpt>
      <trkpt lat="50.75244" lon="2.55826">
        <ele>31</ele>
        <time>2026-03-05T18:12:02Z</time>
      </trkpt>
      <trkpt lat="50.75249" lon="2.55663">
        <ele>32</ele>
        <time>2026-03-05T18:12:21Z</time>
      </trkpt>
      <trkpt lat="50.75243" lon="2.55352">
        <ele>33</ele>
        <time>2026-03-05T18:12:56Z</time>
      </trkpt>
      <trkpt lat="50.75245" lon="2.55338">
        <ele>33</ele>
        <time>2026-03-05T18:12:57Z</time>
      </trkpt>
      <trkpt lat="50.75254" lon="2.55319">
        <ele>33</ele>
        <time>2026-03-05T18:13:00Z</time>
      </trkpt>
      <trkpt lat="50.75257" lon="2.55303">
        <ele>33</ele>
        <time>2026-03-05T18:13:02Z</time>
      </trkpt>
      <trkpt lat="50.75252" lon="2.55249">
        <ele>33</ele>
        <time>2026-03-05T18:13:08Z</time>
      </trkpt>
      <trkpt lat="50.75257" lon="2.55166">
        <ele>32</ele>
        <time>2026-03-05T18:13:17Z</time>
      </trkpt>
      <trkpt lat="50.75262" lon="2.55">
        <ele>30</ele>
        <time>2026-03-05T18:13:36Z</time>
      </trkpt>
      <trkpt lat="50.75263" lon="2.54781">
        <ele>25</ele>
        <time>2026-03-05T18:14:01Z</time>
      </trkpt>
      <trkpt lat="50.75278" lon="2.54481">
        <ele>28</ele>
        <time>2026-03-05T18:14:35Z</time>
      </trkpt>
      <trkpt lat="50.75283" lon="2.54163">
        <ele>30</ele>
        <time>2026-03-05T18:15:10Z</time>
      </trkpt>
      <trkpt lat="50.75275" lon="2.5384">
        <ele>32</ele>
        <time>2026-03-05T18:15:47Z</time>
      </trkpt>
      <trkpt lat="50.7528" lon="2.53829">
        <ele>32</ele>
        <time>2026-03-05T18:15:48Z</time>
      </trkpt>
      <trkpt lat="50.75379" lon="2.53798">
        <ele>32</ele>
        <time>2026-03-05T18:16:06Z</time>
      </trkpt>
      <trkpt lat="50.75427" lon="2.53788">
        <ele>32</ele>
        <time>2026-03-05T18:16:15Z</time>
      </trkpt>
      <trkpt lat="50.75432" lon="2.53791">
        <ele>32</ele>
        <time>2026-03-05T18:16:16Z</time>
      </trkpt>
      <trkpt lat="50.75436" lon="2.53789">
        <ele>32</ele>
        <time>2026-03-05T18:16:17Z</time>
      </trkpt>
      <trkpt lat="50.75461" lon="2.53744">
        <ele>32</ele>
        <time>2026-03-05T18:16:23Z</time>
      </trkpt>
      <trkpt lat="50.75478" lon="2.53738">
        <ele>32</ele>
        <time>2026-03-05T18:16:26Z</time>
      </trkpt>
      <trkpt lat="50.7551" lon="2.53746">
        <ele>31</ele>
        <time>2026-03-05T18:16:32Z</time>
      </trkpt>
      <trkpt lat="50.75543" lon="2.53751">
        <ele>31</ele>
        <time>2026-03-05T18:16:38Z</time>
      </trkpt>
      <trkpt lat="50.75552" lon="2.53747">
        <ele>31</ele>
        <time>2026-03-05T18:16:40Z</time>
      </trkpt>
      <trkpt lat="50.75558" lon="2.53728">
        <ele>31</ele>
        <time>2026-03-05T18:16:42Z</time>
      </trkpt>
      <trkpt lat="50.75561" lon="2.53606">
        <ele>32</ele>
        <time>2026-03-05T18:16:56Z</time>
      </trkpt>
      <trkpt lat="50.75574" lon="2.53555">
        <ele>32</ele>
        <time>2026-03-05T18:17:02Z</time>
      </trkpt>
      <trkpt lat="50.75581" lon="2.53536">
        <ele>33</ele>
        <time>2026-03-05T18:17:05Z</time>
      </trkpt>
      <trkpt lat="50.75593" lon="2.53523">
        <ele>33</ele>
        <time>2026-03-05T18:17:07Z</time>
      </trkpt>
      <trkpt lat="50.75614" lon="2.53522">
        <ele>32</ele>
        <time>2026-03-05T18:17:11Z</time>
      </trkpt>
      <trkpt lat="50.75656" lon="2.53529">
        <ele>32</ele>
        <time>2026-03-05T18:17:18Z</time>
      </trkpt>
      <trkpt lat="50.75664" lon="2.53528">
        <ele>32</ele>
        <time>2026-03-05T18:17:20Z</time>
      </trkpt>
      <trkpt lat="50.75696" lon="2.53512">
        <ele>31</ele>
        <time>2026-03-05T18:17:26Z</time>
      </trkpt>
      <trkpt lat="50.75707" lon="2.53504">
        <ele>31</ele>
        <time>2026-03-05T18:17:28Z</time>
      </trkpt>
      <trkpt lat="50.75715" lon="2.53489">
        <ele>31</ele>
        <time>2026-03-05T18:17:30Z</time>
      </trkpt>
      <trkpt lat="50.75719" lon="2.53459">
        <ele>31</ele>
        <time>2026-03-05T18:17:34Z</time>
      </trkpt>
      <trkpt lat="50.75723" lon="2.53374">
        <ele>33</ele>
        <time>2026-03-05T18:17:43Z</time>
      </trkpt>
      <trkpt lat="50.75727" lon="2.53096">
        <ele>34</ele>
        <time>2026-03-05T18:18:15Z</time>
      </trkpt>
      <trkpt lat="50.75725" lon="2.5294">
        <ele>34</ele>
        <time>2026-03-05T18:18:32Z</time>
      </trkpt>
      <trkpt lat="50.75714" lon="2.5284">
        <ele>35</ele>
        <time>2026-03-05T18:18:43Z</time>
      </trkpt>
      <trkpt lat="50.75691" lon="2.52572">
        <ele>38</ele>
        <time>2026-03-05T18:19:14Z</time>
      </trkpt>
      <trkpt lat="50.75676" lon="2.52473">
        <ele>41</ele>
        <time>2026-03-05T18:19:25Z</time>
      </trkpt>
      <trkpt lat="50.75673" lon="2.52434">
        <ele>42</ele>
        <time>2026-03-05T18:19:30Z</time>
      </trkpt>
      <trkpt lat="50.7567" lon="2.52337">
        <ele>43</ele>
        <time>2026-03-05T18:19:41Z</time>
      </trkpt>
      <trkpt lat="50.75676" lon="2.52265">
        <ele>43</ele>
        <time>2026-03-05T18:19:49Z</time>
      </trkpt>
      <trkpt lat="50.75674" lon="2.52148">
        <ele>45</ele>
        <time>2026-03-05T18:20:02Z</time>
      </trkpt>
      <trkpt lat="50.7566" lon="2.52056">
        <ele>45</ele>
        <time>2026-03-05T18:20:13Z</time>
      </trkpt>
      <trkpt lat="50.75649" lon="2.51919">
        <ele>46</ele>
        <time>2026-03-05T18:20:28Z</time>
      </trkpt>
      <trkpt lat="50.75655" lon="2.51897">
        <ele>46</ele>
        <time>2026-03-05T18:20:31Z</time>
      </trkpt>
      <trkpt lat="50.75673" lon="2.51893">
        <ele>46</ele>
        <time>2026-03-05T18:20:34Z</time>
      </trkpt>
      <trkpt lat="50.757" lon="2.51893">
        <ele>45</ele>
        <time>2026-03-05T18:20:39Z</time>
      </trkpt>
      <trkpt lat="50.75704" lon="2.5189">
        <ele>45</ele>
        <time>2026-03-05T18:20:40Z</time>
      </trkpt>
      <trkpt lat="50.75709" lon="2.51871">
        <ele>45</ele>
        <time>2026-03-05T18:20:42Z</time>
      </trkpt>
      <trkpt lat="50.75698" lon="2.51596">
        <ele>45</ele>
        <time>2026-03-05T18:21:13Z</time>
      </trkpt>
      <trkpt lat="50.7568" lon="2.51268">
        <ele>49</ele>
        <time>2026-03-05T18:21:50Z</time>
      </trkpt>
      <trkpt lat="50.7568" lon="2.51195">
        <ele>49</ele>
        <time>2026-03-05T18:21:58Z</time>
      </trkpt>
      <trkpt lat="50.75684" lon="2.51124">
        <ele>50</ele>
        <time>2026-03-05T18:22:06Z</time>
      </trkpt>
      <trkpt lat="50.75681" lon="2.51041">
        <ele>50</ele>
        <time>2026-03-05T18:22:16Z</time>
      </trkpt>
      <trkpt lat="50.75684" lon="2.51009">
        <ele>50</ele>
        <time>2026-03-05T18:22:19Z</time>
      </trkpt>
      <trkpt lat="50.75706" lon="2.50867">
        <ele>49</ele>
        <time>2026-03-05T18:22:36Z</time>
      </trkpt>
      <trkpt lat="50.75704" lon="2.50812">
        <ele>49</ele>
        <time>2026-03-05T18:22:42Z</time>
      </trkpt>
      <trkpt lat="50.75686" lon="2.50648">
        <ele>50</ele>
        <time>2026-03-05T18:23:01Z</time>
      </trkpt>
      <trkpt lat="50.75675" lon="2.50504">
        <ele>50</ele>
        <time>2026-03-05T18:23:17Z</time>
      </trkpt>
      <trkpt lat="50.75674" lon="2.50449">
        <ele>51</ele>
        <time>2026-03-05T18:23:23Z</time>
      </trkpt>
      <trkpt lat="50.75684" lon="2.50393">
        <ele>51</ele>
        <time>2026-03-05T18:23:30Z</time>
      </trkpt>
      <trkpt lat="50.75684" lon="2.50362">
        <ele>51</ele>
        <time>2026-03-05T18:23:33Z</time>
      </trkpt>
      <trkpt lat="50.75674" lon="2.50269">
        <ele>53</ele>
        <time>2026-03-05T18:23:44Z</time>
      </trkpt>
      <trkpt lat="50.75681" lon="2.50258">
        <ele>52</ele>
        <time>2026-03-05T18:23:46Z</time>
      </trkpt>
      <trkpt lat="50.75703" lon="2.50264">
        <ele>51</ele>
        <time>2026-03-05T18:23:50Z</time>
      </trkpt>
      <trkpt lat="50.75716" lon="2.50265">
        <ele>51</ele>
        <time>2026-03-05T18:23:52Z</time>
      </trkpt>
      <trkpt lat="50.75737" lon="2.50261">
        <ele>50</ele>
        <time>2026-03-05T18:23:56Z</time>
      </trkpt>
      <trkpt lat="50.75757" lon="2.50251">
        <ele>50</ele>
        <time>2026-03-05T18:24:00Z</time>
      </trkpt>
      <trkpt lat="50.75852" lon="2.50151">
        <ele>54</ele>
        <time>2026-03-05T18:24:20Z</time>
      </trkpt>
      <trkpt lat="50.75878" lon="2.5013">
        <ele>54</ele>
        <time>2026-03-05T18:24:25Z</time>
      </trkpt>
      <trkpt lat="50.75911" lon="2.50111">
        <ele>55</ele>
        <time>2026-03-05T18:24:31Z</time>
      </trkpt>
      <trkpt lat="50.75951" lon="2.50099">
        <ele>54</ele>
        <time>2026-03-05T18:24:39Z</time>
      </trkpt>
      <trkpt lat="50.76016" lon="2.50095">
        <ele>53</ele>
        <time>2026-03-05T18:24:50Z</time>
      </trkpt>
      <trkpt lat="50.76059" lon="2.50085">
        <ele>52</ele>
        <time>2026-03-05T18:24:58Z</time>
      </trkpt>
      <trkpt lat="50.76173" lon="2.50018">
        <ele>50</ele>
        <time>2026-03-05T18:25:19Z</time>
      </trkpt>
      <trkpt lat="50.76269" lon="2.4994">
        <ele>46</ele>
        <time>2026-03-05T18:25:39Z</time>
      </trkpt>
      <trkpt lat="50.76322" lon="2.49913">
        <ele>44</ele>
        <time>2026-03-05T18:25:49Z</time>
      </trkpt>
      <trkpt lat="50.76368" lon="2.49884">
        <ele>43</ele>
        <time>2026-03-05T18:25:57Z</time>
      </trkpt>
      <trkpt lat="50.76417" lon="2.49865">
        <ele>43</ele>
        <time>2026-03-05T18:26:06Z</time>
      </trkpt>
      <trkpt lat="50.76617" lon="2.49817">
        <ele>39</ele>
        <time>2026-03-05T18:26:42Z</time>
      </trkpt>
      <trkpt lat="50.76669" lon="2.49798">
        <ele>39</ele>
        <time>2026-03-05T18:26:52Z</time>
      </trkpt>
      <trkpt lat="50.76743" lon="2.49754">
        <ele>39</ele>
        <time>2026-03-05T18:27:06Z</time>
      </trkpt>
      <trkpt lat="50.76828" lon="2.4965">
        <ele>39</ele>
        <time>2026-03-05T18:27:25Z</time>
      </trkpt>
      <trkpt lat="50.76872" lon="2.49605">
        <ele>40</ele>
        <time>2026-03-05T18:27:34Z</time>
      </trkpt>
      <trkpt lat="50.769" lon="2.49591">
        <ele>40</ele>
        <time>2026-03-05T18:27:40Z</time>
      </trkpt>
      <trkpt lat="50.76941" lon="2.49586">
        <ele>40</ele>
        <time>2026-03-05T18:27:47Z</time>
      </trkpt>
      <trkpt lat="50.77155" lon="2.49591">
        <ele>37</ele>
        <time>2026-03-05T18:28:25Z</time>
      </trkpt>
      <trkpt lat="50.77186" lon="2.49589">
        <ele>37</ele>
        <time>2026-03-05T18:28:31Z</time>
      </trkpt>
      <trkpt lat="50.77218" lon="2.49575">
        <ele>36</ele>
        <time>2026-03-05T18:28:36Z</time>
      </trkpt>
      <trkpt lat="50.77314" lon="2.49511">
        <ele>36</ele>
        <time>2026-03-05T18:28:55Z</time>
      </trkpt>
      <trkpt lat="50.77346" lon="2.49499">
        <ele>36</ele>
        <time>2026-03-05T18:29:01Z</time>
      </trkpt>
      <trkpt lat="50.77476" lon="2.49494">
        <ele>34</ele>
        <time>2026-03-05T18:29:24Z</time>
      </trkpt>
      <trkpt lat="50.77763" lon="2.49508">
        <ele>33</ele>
        <time>2026-03-05T18:30:15Z</time>
      </trkpt>
      <trkpt lat="50.77827" lon="2.495">
        <ele>35</ele>
        <time>2026-03-05T18:30:26Z</time>
      </trkpt>
      <trkpt lat="50.77891" lon="2.49486">
        <ele>35</ele>
        <time>2026-03-05T18:30:38Z</time>
      </trkpt>
      <trkpt lat="50.77957" lon="2.4948">
        <ele>36</ele>
        <time>2026-03-05T18:30:50Z</time>
      </trkpt>
      <trkpt lat="50.77996" lon="2.49479">
        <ele>36</ele>
        <time>2026-03-05T18:30:57Z</time>
      </trkpt>
      <trkpt lat="50.78088" lon="2.49715">
        <ele>37</ele>
        <time>2026-03-05T18:31:28Z</time>
      </trkpt>
      <trkpt lat="50.78119" lon="2.49802">
        <ele>40</ele>
        <time>2026-03-05T18:31:39Z</time>
      </trkpt>
      <trkpt lat="50.78169" lon="2.49983">
        <ele>40</ele>
        <time>2026-03-05T18:32:01Z</time>
      </trkpt>
      <trkpt lat="50.78196" lon="2.50114">
        <ele>41</ele>
        <time>2026-03-05T18:32:17Z</time>
      </trkpt>
      <trkpt lat="50.78224" lon="2.50179">
        <ele>42</ele>
        <time>2026-03-05T18:32:26Z</time>
      </trkpt>
      <trkpt lat="50.78287" lon="2.50281">
        <ele>45</ele>
        <time>2026-03-05T18:32:42Z</time>
      </trkpt>
      <trkpt lat="50.78299" lon="2.50305">
        <ele>45</ele>
        <time>2026-03-05T18:32:45Z</time>
      </trkpt>
      <trkpt lat="50.78337" lon="2.5041">
        <ele>49</ele>
        <time>2026-03-05T18:32:59Z</time>
      </trkpt>
      <trkpt lat="50.78353" lon="2.50468">
        <ele>50</ele>
        <time>2026-03-05T18:33:06Z</time>
      </trkpt>
      <trkpt lat="50.78367" lon="2.50546">
        <ele>51</ele>
        <time>2026-03-05T18:33:15Z</time>
      </trkpt>
      <trkpt lat="50.78365" lon="2.50571">
        <ele>51</ele>
        <time>2026-03-05T18:33:18Z</time>
      </trkpt>
      <trkpt lat="50.78357" lon="2.50596">
        <ele>51</ele>
        <time>2026-03-05T18:33:21Z</time>
      </trkpt>
      <trkpt lat="50.78356" lon="2.50612">
        <ele>52</ele>
        <time>2026-03-05T18:33:23Z</time>
      </trkpt>
      <trkpt lat="50.78358" lon="2.50623">
        <ele>52</ele>
        <time>2026-03-05T18:33:24Z</time>
      </trkpt>
      <trkpt lat="50.78424" lon="2.50819">
        <ele>59</ele>
        <time>2026-03-05T18:33:49Z</time>
      </trkpt>
      <trkpt lat="50.78416" lon="2.50824">
        <ele>59</ele>
        <time>2026-03-05T18:33:51Z</time>
      </trkpt>
      <trkpt lat="50.78433" lon="2.5091">
        <ele>58</ele>
        <time>2026-03-05T18:34:01Z</time>
      </trkpt>
      <trkpt lat="50.78433" lon="2.50925">
        <ele>58</ele>
        <time>2026-03-05T18:34:02Z</time>
      </trkpt>
      <trkpt lat="50.78429" lon="2.50931">
        <ele>57</ele>
        <time>2026-03-05T18:34:03Z</time>
      </trkpt>
      <trkpt lat="50.78396" lon="2.50956">
        <ele>56</ele>
        <time>2026-03-05T18:34:10Z</time>
      </trkpt>
      <trkpt lat="50.78389" lon="2.50966">
        <ele>55</ele>
        <time>2026-03-05T18:34:12Z</time>
      </trkpt>
      <trkpt lat="50.78369" lon="2.51008">
        <ele>54</ele>
        <time>2026-03-05T18:34:18Z</time>
      </trkpt>
      <trkpt lat="50.78383" lon="2.5105">
        <ele>54</ele>
        <time>2026-03-05T18:34:23Z</time>
      </trkpt>
      <trkpt lat="50.78425" lon="2.51155">
        <ele>54</ele>
        <time>2026-03-05T18:34:37Z</time>
      </trkpt>
      <trkpt lat="50.78454" lon="2.51246">
        <ele>53</ele>
        <time>2026-03-05T18:34:48Z</time>
      </trkpt>
      <trkpt lat="50.78409" lon="2.51292">
        <ele>52</ele>
        <time>2026-03-05T18:34:58Z</time>
      </trkpt>
      <trkpt lat="50.78394" lon="2.51302">
        <ele>52</ele>
        <time>2026-03-05T18:35:01Z</time>
      </trkpt>
      <trkpt lat="50.78365" lon="2.51313">
        <ele>51</ele>
        <time>2026-03-05T18:35:06Z</time>
      </trkpt>
      <trkpt lat="50.78377" lon="2.51425">
        <ele>52</ele>
        <time>2026-03-05T18:35:19Z</time>
      </trkpt>
      <trkpt lat="50.78374" lon="2.51436">
        <ele>52</ele>
        <time>2026-03-05T18:35:20Z</time>
      </trkpt>
      <trkpt lat="50.78384" lon="2.51445">
        <ele>52</ele>
        <time>2026-03-05T18:35:22Z</time>
      </trkpt>
      <trkpt lat="50.78395" lon="2.51467">
        <ele>52</ele>
        <time>2026-03-05T18:35:25Z</time>
      </trkpt>
      <trkpt lat="50.78448" lon="2.51629">
        <ele>53</ele>
        <time>2026-03-05T18:35:46Z</time>
      </trkpt>
      <trkpt lat="50.78459" lon="2.51645">
        <ele>54</ele>
        <time>2026-03-05T18:35:49Z</time>
      </trkpt>
      <trkpt lat="50.78498" lon="2.51686">
        <ele>55</ele>
        <time>2026-03-05T18:35:57Z</time>
      </trkpt>
      <trkpt lat="50.78505" lon="2.51689">
        <ele>56</ele>
        <time>2026-03-05T18:35:58Z</time>
      </trkpt>
      <trkpt lat="50.7852" lon="2.51689">
        <ele>56</ele>
        <time>2026-03-05T18:36:01Z</time>
      </trkpt>
      <trkpt lat="50.78554" lon="2.51679">
        <ele>57</ele>
        <time>2026-03-05T18:36:07Z</time>
      </trkpt>
      <trkpt lat="50.78576" lon="2.51676">
        <ele>58</ele>
        <time>2026-03-05T18:36:11Z</time>
      </trkpt>
      <trkpt lat="50.786" lon="2.51677">
        <ele>59</ele>
        <time>2026-03-05T18:36:15Z</time>
      </trkpt>
      <trkpt lat="50.78622" lon="2.51686">
        <ele>59</ele>
        <time>2026-03-05T18:36:19Z</time>
      </trkpt>
      <trkpt lat="50.78648" lon="2.51707">
        <ele>60</ele>
        <time>2026-03-05T18:36:24Z</time>
      </trkpt>
      <trkpt lat="50.7866" lon="2.51723">
        <ele>61</ele>
        <time>2026-03-05T18:36:27Z</time>
      </trkpt>
      <trkpt lat="50.78688" lon="2.51797">
        <ele>62</ele>
        <time>2026-03-05T18:36:37Z</time>
      </trkpt>
      <trkpt lat="50.78695" lon="2.51811">
        <ele>62</ele>
        <time>2026-03-05T18:36:39Z</time>
      </trkpt>
      <trkpt lat="50.78704" lon="2.51822">
        <ele>62</ele>
        <time>2026-03-05T18:36:41Z</time>
      </trkpt>
      <trkpt lat="50.78723" lon="2.51836">
        <ele>61</ele>
        <time>2026-03-05T18:36:45Z</time>
      </trkpt>
      <trkpt lat="50.78763" lon="2.51852">
        <ele>60</ele>
        <time>2026-03-05T18:36:52Z</time>
      </trkpt>
      <trkpt lat="50.78801" lon="2.51881">
        <ele>57</ele>
        <time>2026-03-05T18:37:00Z</time>
      </trkpt>
      <trkpt lat="50.78755" lon="2.52024">
        <ele>57</ele>
        <time>2026-03-05T18:37:18Z</time>
      </trkpt>
      <trkpt lat="50.78861" lon="2.52223">
        <ele>49</ele>
        <time>2026-03-05T18:37:47Z</time>
      </trkpt>
      <trkpt lat="50.78912" lon="2.52335">
        <ele>44</ele>
        <time>2026-03-05T18:38:02Z</time>
      </trkpt>
      <trkpt lat="50.78931" lon="2.5236">
        <ele>42</ele>
        <time>2026-03-05T18:38:07Z</time>
      </trkpt>
      <trkpt lat="50.78983" lon="2.52404">
        <ele>40</ele>
        <time>2026-03-05T18:38:17Z</time>
      </trkpt>
      <trkpt lat="50.78998" lon="2.52421">
        <ele>39</ele>
        <time>2026-03-05T18:38:21Z</time>
      </trkpt>
      <trkpt lat="50.79001" lon="2.52438">
        <ele>40</ele>
        <time>2026-03-05T18:38:23Z</time>
      </trkpt>
      <trkpt lat="50.78998" lon="2.52497">
        <ele>41</ele>
        <time>2026-03-05T18:38:29Z</time>
      </trkpt>
      <trkpt lat="50.79" lon="2.52521">
        <ele>42</ele>
        <time>2026-03-05T18:38:32Z</time>
      </trkpt>
      <trkpt lat="50.7901" lon="2.52556">
        <ele>43</ele>
        <time>2026-03-05T18:38:36Z</time>
      </trkpt>
      <trkpt lat="50.79069" lon="2.52728">
        <ele>49</ele>
        <time>2026-03-05T18:38:58Z</time>
      </trkpt>
      <trkpt lat="50.79091" lon="2.5282">
        <ele>50</ele>
        <time>2026-03-05T18:39:09Z</time>
      </trkpt>
      <trkpt lat="50.79101" lon="2.52841">
        <ele>49</ele>
        <time>2026-03-05T18:39:12Z</time>
      </trkpt>
      <trkpt lat="50.791" lon="2.52864">
        <ele>49</ele>
        <time>2026-03-05T18:39:15Z</time>
      </trkpt>
      <trkpt lat="50.79084" lon="2.52931">
        <ele>47</ele>
        <time>2026-03-05T18:39:23Z</time>
      </trkpt>
      <trkpt lat="50.79094" lon="2.53086">
        <ele>43</ele>
        <time>2026-03-05T18:39:40Z</time>
      </trkpt>
      <trkpt lat="50.791" lon="2.53106">
        <ele>42</ele>
        <time>2026-03-05T18:39:43Z</time>
      </trkpt>
      <trkpt lat="50.79106" lon="2.5312">
        <ele>42</ele>
        <time>2026-03-05T18:39:45Z</time>
      </trkpt>
      <trkpt lat="50.79196" lon="2.53271">
        <ele>38</ele>
        <time>2026-03-05T18:40:08Z</time>
      </trkpt>
      <trkpt lat="50.79237" lon="2.53331">
        <ele>36</ele>
        <time>2026-03-05T18:40:18Z</time>
      </trkpt>
      <trkpt lat="50.7925" lon="2.53357">
        <ele>36</ele>
        <time>2026-03-05T18:40:22Z</time>
      </trkpt>
      <trkpt lat="50.79261" lon="2.53388">
        <ele>35</ele>
        <time>2026-03-05T18:40:26Z</time>
      </trkpt>
      <trkpt lat="50.79284" lon="2.53386">
        <ele>35</ele>
        <time>2026-03-05T18:40:30Z</time>
      </trkpt>
      <trkpt lat="50.79307" lon="2.53389">
        <ele>35</ele>
        <time>2026-03-05T18:40:34Z</time>
      </trkpt>
      <trkpt lat="50.79325" lon="2.53397">
        <ele>35</ele>
        <time>2026-03-05T18:40:37Z</time>
      </trkpt>
      <trkpt lat="50.79461" lon="2.53504">
        <ele>34</ele>
        <time>2026-03-05T18:41:04Z</time>
      </trkpt>
      <trkpt lat="50.79483" lon="2.53532">
        <ele>34</ele>
        <time>2026-03-05T18:41:09Z</time>
      </trkpt>
      <trkpt lat="50.79521" lon="2.53597">
        <ele>35</ele>
        <time>2026-03-05T18:41:19Z</time>
      </trkpt>
      <trkpt lat="50.79534" lon="2.53614">
        <ele>35</ele>
        <time>2026-03-05T18:41:22Z</time>
      </trkpt>
      <trkpt lat="50.79586" lon="2.53649">
        <ele>36</ele>
        <time>2026-03-05T18:41:32Z</time>
      </trkpt>
      <trkpt lat="50.79594" lon="2.53658">
        <ele>36</ele>
        <time>2026-03-05T18:41:34Z</time>
      </trkpt>
      <trkpt lat="50.79602" lon="2.53674">
        <ele>36</ele>
        <time>2026-03-05T18:41:36Z</time>
      </trkpt>
      <trkpt lat="50.79607" lon="2.53742">
        <ele>36</ele>
        <time>2026-03-05T18:41:44Z</time>
      </trkpt>
      <trkpt lat="50.79618" lon="2.53821">
        <ele>36</ele>
        <time>2026-03-05T18:41:53Z</time>
      </trkpt>
      <trkpt lat="50.79639" lon="2.53896">
        <ele>35</ele>
        <time>2026-03-05T18:42:03Z</time>
      </trkpt>
      <trkpt lat="50.79641" lon="2.53929">
        <ele>35</ele>
        <time>2026-03-05T18:42:06Z</time>
      </trkpt>
      <trkpt lat="50.79615" lon="2.54101">
        <ele>34</ele>
        <time>2026-03-05T18:42:26Z</time>
      </trkpt>
      <trkpt lat="50.79609" lon="2.54262">
        <ele>32</ele>
        <time>2026-03-05T18:42:44Z</time>
      </trkpt>
      <trkpt lat="50.79614" lon="2.54279">
        <ele>31</ele>
        <time>2026-03-05T18:42:46Z</time>
      </trkpt>
      <trkpt lat="50.79568" lon="2.54327">
        <ele>31</ele>
        <time>2026-03-05T18:42:56Z</time>
      </trkpt>
      <trkpt lat="50.79555" lon="2.54336">
        <ele>31</ele>
        <time>2026-03-05T18:42:59Z</time>
      </trkpt>
      <trkpt lat="50.79517" lon="2.54337">
        <ele>32</ele>
        <time>2026-03-05T18:43:05Z</time>
      </trkpt>
      <trkpt lat="50.79476" lon="2.5433">
        <ele>33</ele>
        <time>2026-03-05T18:43:13Z</time>
      </trkpt>
      <trkpt lat="50.79433" lon="2.54311">
        <ele>33</ele>
        <time>2026-03-05T18:43:21Z</time>
      </trkpt>
      <trkpt lat="50.79407" lon="2.54312">
        <ele>33</ele>
        <time>2026-03-05T18:43:25Z</time>
      </trkpt>
      <trkpt lat="50.79261" lon="2.54378">
        <ele>35</ele>
        <time>2026-03-05T18:43:52Z</time>
      </trkpt>
      <trkpt lat="50.79107" lon="2.54488">
        <ele>35</ele>
        <time>2026-03-05T18:44:22Z</time>
      </trkpt>
      <trkpt lat="50.7898" lon="2.54593">
        <ele>30</ele>
        <time>2026-03-05T18:44:48Z</time>
      </trkpt>
      <trkpt lat="50.78911" lon="2.54654">
        <ele>31</ele>
        <time>2026-03-05T18:45:02Z</time>
      </trkpt>
      <trkpt lat="50.78865" lon="2.54724">
        <ele>31</ele>
        <time>2026-03-05T18:45:13Z</time>
      </trkpt>
      <trkpt lat="50.78845" lon="2.54765">
        <ele>31</ele>
        <time>2026-03-05T18:45:19Z</time>
      </trkpt>
      <trkpt lat="50.78802" lon="2.54895">
        <ele>30</ele>
        <time>2026-03-05T18:45:36Z</time>
      </trkpt>
      <trkpt lat="50.78786" lon="2.54903">
        <ele>30</ele>
        <time>2026-03-05T18:45:39Z</time>
      </trkpt>
      <trkpt lat="50.78769" lon="2.54892">
        <ele>30</ele>
        <time>2026-03-05T18:45:42Z</time>
      </trkpt>
      <trkpt lat="50.78731" lon="2.54847">
        <ele>30</ele>
        <time>2026-03-05T18:45:50Z</time>
      </trkpt>
      <trkpt lat="50.78689" lon="2.54804">
        <ele>29</ele>
        <time>2026-03-05T18:45:59Z</time>
      </trkpt>
      <trkpt lat="50.78663" lon="2.5479">
        <ele>29</ele>
        <time>2026-03-05T18:46:04Z</time>
      </trkpt>
      <trkpt lat="50.78649" lon="2.54792">
        <ele>30</ele>
        <time>2026-03-05T18:46:07Z</time>
      </trkpt>
      <trkpt lat="50.78636" lon="2.54801">
        <ele>30</ele>
        <time>2026-03-05T18:46:09Z</time>
      </trkpt>
      <trkpt lat="50.78565" lon="2.54902">
        <ele>31</ele>
        <time>2026-03-05T18:46:26Z</time>
      </trkpt>
      <trkpt lat="50.78525" lon="2.54964">
        <ele>32</ele>
        <time>2026-03-05T18:46:36Z</time>
      </trkpt>
      <trkpt lat="50.78503" lon="2.55">
        <ele>32</ele>
        <time>2026-03-05T18:46:42Z</time>
      </trkpt>
      <trkpt lat="50.78452" lon="2.55104">
        <ele>32</ele>
        <time>2026-03-05T18:46:57Z</time>
      </trkpt>
      <trkpt lat="50.78424" lon="2.55153">
        <ele>32</ele>
        <time>2026-03-05T18:47:04Z</time>
      </trkpt>
      <trkpt lat="50.78398" lon="2.55187">
        <ele>32</ele>
        <time>2026-03-05T18:47:10Z</time>
      </trkpt>
      <trkpt lat="50.78394" lon="2.55184">
        <ele>32</ele>
        <time>2026-03-05T18:47:11Z</time>
      </trkpt>
      <trkpt lat="50.7838" lon="2.55187">
        <ele>32</ele>
        <time>2026-03-05T18:47:13Z</time>
      </trkpt>
      <trkpt lat="50.78357" lon="2.55181">
        <ele>32</ele>
        <time>2026-03-05T18:47:17Z</time>
      </trkpt>
      <trkpt lat="50.78325" lon="2.55163">
        <ele>32</ele>
        <time>2026-03-05T18:47:24Z</time>
      </trkpt>
      <trkpt lat="50.78299" lon="2.55144">
        <ele>32</ele>
        <time>2026-03-05T18:47:29Z</time>
      </trkpt>
      <trkpt lat="50.78288" lon="2.55141">
        <ele>32</ele>
        <time>2026-03-05T18:47:31Z</time>
      </trkpt>
      <trkpt lat="50.78266" lon="2.55152">
        <ele>33</ele>
        <time>2026-03-05T18:47:35Z</time>
      </trkpt>
      <trkpt lat="50.78225" lon="2.55187">
        <ele>33</ele>
        <time>2026-03-05T18:47:43Z</time>
      </trkpt>
      <trkpt lat="50.78172" lon="2.55222">
        <ele>33</ele>
        <time>2026-03-05T18:47:53Z</time>
      </trkpt>
      <trkpt lat="50.78116" lon="2.55251">
        <ele>32</ele>
        <time>2026-03-05T18:48:04Z</time>
      </trkpt>
      <trkpt lat="50.78075" lon="2.55282">
        <ele>33</ele>
        <time>2026-03-05T18:48:12Z</time>
      </trkpt>
      <trkpt lat="50.7801" lon="2.55366">
        <ele>35</ele>
        <time>2026-03-05T18:48:27Z</time>
      </trkpt>
      <trkpt lat="50.77965" lon="2.55411">
        <ele>36</ele>
        <time>2026-03-05T18:48:36Z</time>
      </trkpt>
      <trkpt lat="50.77953" lon="2.55418">
        <ele>36</ele>
        <time>2026-03-05T18:48:38Z</time>
      </trkpt>
      <trkpt lat="50.77929" lon="2.55421">
        <ele>37</ele>
        <time>2026-03-05T18:48:43Z</time>
      </trkpt>
      <trkpt lat="50.77864" lon="2.55404">
        <ele>39</ele>
        <time>2026-03-05T18:48:54Z</time>
      </trkpt>
      <trkpt lat="50.77844" lon="2.55389">
        <ele>40</ele>
        <time>2026-03-05T18:48:58Z</time>
      </trkpt>
      <trkpt lat="50.77799" lon="2.55344">
        <ele>42</ele>
        <time>2026-03-05T18:49:08Z</time>
      </trkpt>
      <trkpt lat="50.77777" lon="2.55356">
        <ele>43</ele>
        <time>2026-03-05T18:49:12Z</time>
      </trkpt>
      <trkpt lat="50.77742" lon="2.55324">
        <ele>44</ele>
        <time>2026-03-05T18:49:19Z</time>
      </trkpt>
      <trkpt lat="50.7774" lon="2.55326">
        <ele>45</ele>
        <time>2026-03-05T18:49:20Z</time>
      </trkpt>
      <trkpt lat="50.77733" lon="2.55338">
        <ele>45</ele>
        <time>2026-03-05T18:49:21Z</time>
      </trkpt>
      <trkpt lat="50.77651" lon="2.55561">
        <ele>51</ele>
        <time>2026-03-05T18:49:51Z</time>
      </trkpt>
      <trkpt lat="50.77436" lon="2.56153">
        <ele>55</ele>
        <time>2026-03-05T18:51:07Z</time>
      </trkpt>
      <trkpt lat="50.77426" lon="2.56176">
        <ele>55</ele>
        <time>2026-03-05T18:51:10Z</time>
      </trkpt>
      <trkpt lat="50.77411" lon="2.56201">
        <ele>55</ele>
        <time>2026-03-05T18:51:14Z</time>
      </trkpt>
      <trkpt lat="50.77393" lon="2.56223">
        <ele>55</ele>
        <time>2026-03-05T18:51:18Z</time>
      </trkpt>
      <trkpt lat="50.7739" lon="2.56274">
        <ele>55</ele>
        <time>2026-03-05T18:51:24Z</time>
      </trkpt>
      <trkpt lat="50.77386" lon="2.56293">
        <ele>55</ele>
        <time>2026-03-05T18:51:26Z</time>
      </trkpt>
      <trkpt lat="50.7732" lon="2.5649">
        <ele>53</ele>
        <time>2026-03-05T18:51:51Z</time>
      </trkpt>
      <trkpt lat="50.77319" lon="2.565">
        <ele>53</ele>
        <time>2026-03-05T18:51:53Z</time>
      </trkpt>
      <trkpt lat="50.77326" lon="2.56531">
        <ele>53</ele>
        <time>2026-03-05T18:51:56Z</time>
      </trkpt>
      <trkpt lat="50.77372" lon="2.56617">
        <ele>54</ele>
        <time>2026-03-05T18:52:09Z</time>
      </trkpt>
      <trkpt lat="50.77374" lon="2.56627">
        <ele>54</ele>
        <time>2026-03-05T18:52:10Z</time>
      </trkpt>
      <trkpt lat="50.77398" lon="2.56853">
        <ele>53</ele>
        <time>2026-03-05T18:52:36Z</time>
      </trkpt>
      <trkpt lat="50.77403" lon="2.56932">
        <ele>53</ele>
        <time>2026-03-05T18:52:45Z</time>
      </trkpt>
      <trkpt lat="50.77424" lon="2.57156">
        <ele>53</ele>
        <time>2026-03-05T18:53:10Z</time>
      </trkpt>
      <trkpt lat="50.77438" lon="2.57238">
        <ele>54</ele>
        <time>2026-03-05T18:53:20Z</time>
      </trkpt>
      <trkpt lat="50.77457" lon="2.57306">
        <ele>55</ele>
        <time>2026-03-05T18:53:28Z</time>
      </trkpt>
      <trkpt lat="50.77486" lon="2.5738">
        <ele>57</ele>
        <time>2026-03-05T18:53:38Z</time>
      </trkpt>
      <trkpt lat="50.77522" lon="2.5746">
        <ele>57</ele>
        <time>2026-03-05T18:53:49Z</time>
      </trkpt>
      <trkpt lat="50.77557" lon="2.57552">
        <ele>57</ele>
        <time>2026-03-05T18:54:01Z</time>
      </trkpt>
      <trkpt lat="50.77579" lon="2.57621">
        <ele>58</ele>
        <time>2026-03-05T18:54:10Z</time>
      </trkpt>
      <trkpt lat="50.77626" lon="2.57817">
        <ele>57</ele>
        <time>2026-03-05T18:54:34Z</time>
      </trkpt>
      <trkpt lat="50.77644" lon="2.57866">
        <ele>57</ele>
        <time>2026-03-05T18:54:40Z</time>
      </trkpt>
      <trkpt lat="50.77669" lon="2.57925">
        <ele>58</ele>
        <time>2026-03-05T18:54:48Z</time>
      </trkpt>
      <trkpt lat="50.77762" lon="2.58115">
        <ele>55</ele>
        <time>2026-03-05T18:55:15Z</time>
      </trkpt>
      <trkpt lat="50.77794" lon="2.58203">
        <ele>55</ele>
        <time>2026-03-05T18:55:26Z</time>
      </trkpt>
      <trkpt lat="50.77818" lon="2.58256">
        <ele>56</ele>
        <time>2026-03-05T18:55:34Z</time>
      </trkpt>
      <trkpt lat="50.7785" lon="2.5831">
        <ele>56</ele>
        <time>2026-03-05T18:55:42Z</time>
      </trkpt>
      <trkpt lat="50.77888" lon="2.58358">
        <ele>57</ele>
        <time>2026-03-05T18:55:51Z</time>
      </trkpt>
      <trkpt lat="50.77908" lon="2.58389">
        <ele>57</ele>
        <time>2026-03-05T18:55:56Z</time>
      </trkpt>
      <trkpt lat="50.77921" lon="2.58416">
        <ele>57</ele>
        <time>2026-03-05T18:55:59Z</time>
      </trkpt>
      <trkpt lat="50.77999" lon="2.58625">
        <ele>56</ele>
        <time>2026-03-05T18:56:27Z</time>
      </trkpt>
      <trkpt lat="50.78023" lon="2.58715">
        <ele>56</ele>
        <time>2026-03-05T18:56:38Z</time>
      </trkpt>
      <trkpt lat="50.78037" lon="2.58798">
        <ele>56</ele>
        <time>2026-03-05T18:56:47Z</time>
      </trkpt>
      <trkpt lat="50.78069" lon="2.59099">
        <ele>59</ele>
        <time>2026-03-05T18:57:22Z</time>
      </trkpt>
      <trkpt lat="50.78071" lon="2.59154">
        <ele>60</ele>
        <time>2026-03-05T18:57:28Z</time>
      </trkpt>
      <trkpt lat="50.78067" lon="2.59186">
        <ele>60</ele>
        <time>2026-03-05T18:57:32Z</time>
      </trkpt>
      <trkpt lat="50.7805" lon="2.59266">
        <ele>61</ele>
        <time>2026-03-05T18:57:41Z</time>
      </trkpt>
      <trkpt lat="50.78032" lon="2.59328">
        <ele>61</ele>
        <time>2026-03-05T18:57:49Z</time>
      </trkpt>
      <trkpt lat="50.77997" lon="2.59429">
        <ele>61</ele>
        <time>2026-03-05T18:58:02Z</time>
      </trkpt>
      <trkpt lat="50.77988" lon="2.59443">
        <ele>62</ele>
        <time>2026-03-05T18:58:04Z</time>
      </trkpt>
      <trkpt lat="50.77962" lon="2.59471">
        <ele>63</ele>
        <time>2026-03-05T18:58:10Z</time>
      </trkpt>
      <trkpt lat="50.77896" lon="2.59521">
        <ele>65</ele>
        <time>2026-03-05T18:58:23Z</time>
      </trkpt>
      <trkpt lat="50.77889" lon="2.5954">
        <ele>65</ele>
        <time>2026-03-05T18:58:25Z</time>
      </trkpt>
      <trkpt lat="50.77887" lon="2.59587">
        <ele>65</ele>
        <time>2026-03-05T18:58:30Z</time>
      </trkpt>
      <trkpt lat="50.77874" lon="2.5968">
        <ele>66</ele>
        <time>2026-03-05T18:58:41Z</time>
      </trkpt>
      <trkpt lat="50.77875" lon="2.59688">
        <ele>66</ele>
        <time>2026-03-05T18:58:42Z</time>
      </trkpt>
      <trkpt lat="50.77884" lon="2.59703">
        <ele>66</ele>
        <time>2026-03-05T18:58:44Z</time>
      </trkpt>
      <trkpt lat="50.77906" lon="2.59714">
        <ele>66</ele>
        <time>2026-03-05T18:58:48Z</time>
      </trkpt>
      <trkpt lat="50.77909" lon="2.59726">
        <ele>66</ele>
        <time>2026-03-05T18:58:50Z</time>
      </trkpt>
      <trkpt lat="50.77903" lon="2.59886">
        <ele>63</ele>
        <time>2026-03-05T18:59:08Z</time>
      </trkpt>
      <trkpt lat="50.779" lon="2.5994">
        <ele>62</ele>
        <time>2026-03-05T18:59:14Z</time>
      </trkpt>
      <trkpt lat="50.77888" lon="2.60015">
        <ele>61</ele>
        <time>2026-03-05T18:59:23Z</time>
      </trkpt>
      <trkpt lat="50.77871" lon="2.60096">
        <ele>62</ele>
        <time>2026-03-05T18:59:32Z</time>
      </trkpt>
      <trkpt lat="50.77873" lon="2.6033">
        <ele>62</ele>
        <time>2026-03-05T18:59:59Z</time>
      </trkpt>
      <trkpt lat="50.77862" lon="2.60392">
        <ele>62</ele>
        <time>2026-03-05T19:00:06Z</time>
      </trkpt>
      <trkpt lat="50.77844" lon="2.60465">
        <ele>62</ele>
        <time>2026-03-05T19:00:15Z</time>
      </trkpt>
      <trkpt lat="50.77839" lon="2.60532">
        <ele>61</ele>
        <time>2026-03-05T19:00:22Z</time>
      </trkpt>
      <trkpt lat="50.77878" lon="2.61215">
        <ele>55</ele>
        <time>2026-03-05T19:01:39Z</time>
      </trkpt>
      <trkpt lat="50.77871" lon="2.61261">
        <ele>54</ele>
        <time>2026-03-05T19:01:45Z</time>
      </trkpt>
      <trkpt lat="50.77844" lon="2.61348">
        <ele>54</ele>
        <time>2026-03-05T19:01:56Z</time>
      </trkpt>
      <trkpt lat="50.77837" lon="2.61385">
        <ele>53</ele>
        <time>2026-03-05T19:02:00Z</time>
      </trkpt>
      <trkpt lat="50.77813" lon="2.61628">
        <ele>52</ele>
        <time>2026-03-05T19:02:28Z</time>
      </trkpt>
      <trkpt lat="50.77769" lon="2.62011">
        <ele>59</ele>
        <time>2026-03-05T19:03:12Z</time>
      </trkpt>
      <trkpt lat="50.77765" lon="2.62087">
        <ele>59</ele>
        <time>2026-03-05T19:03:20Z</time>
      </trkpt>
      <trkpt lat="50.77779" lon="2.6226">
        <ele>58</ele>
        <time>2026-03-05T19:03:40Z</time>
      </trkpt>
      <trkpt lat="50.77768" lon="2.62436">
        <ele>62</ele>
        <time>2026-03-05T19:04:00Z</time>
      </trkpt>
      <trkpt lat="50.77767" lon="2.62643">
        <ele>62</ele>
        <time>2026-03-05T19:04:23Z</time>
      </trkpt>
      <trkpt lat="50.77776" lon="2.62697">
        <ele>62</ele>
        <time>2026-03-05T19:04:29Z</time>
      </trkpt>
      <trkpt lat="50.77789" lon="2.62737">
        <ele>62</ele>
        <time>2026-03-05T19:04:34Z</time>
      </trkpt>
      <trkpt lat="50.77803" lon="2.62765">
        <ele>62</ele>
        <time>2026-03-05T19:04:38Z</time>
      </trkpt>
      <trkpt lat="50.77824" lon="2.62793">
        <ele>62</ele>
        <time>2026-03-05T19:04:43Z</time>
      </trkpt>
      <trkpt lat="50.78004" lon="2.62976">
        <ele>62</ele>
        <time>2026-03-05T19:05:21Z</time>
      </trkpt>
      <trkpt lat="50.78031" lon="2.63004">
        <ele>61</ele>
        <time>2026-03-05T19:05:27Z</time>
      </trkpt>
      <trkpt lat="50.78043" lon="2.6302">
        <ele>60</ele>
        <time>2026-03-05T19:05:30Z</time>
      </trkpt>
      <trkpt lat="50.78068" lon="2.63069">
        <ele>59</ele>
        <time>2026-03-05T19:05:37Z</time>
      </trkpt>
      <trkpt lat="50.78096" lon="2.63149">
        <ele>59</ele>
        <time>2026-03-05T19:05:47Z</time>
      </trkpt>
      <trkpt lat="50.78111" lon="2.6318">
        <ele>59</ele>
        <time>2026-03-05T19:05:52Z</time>
      </trkpt>
      <trkpt lat="50.78123" lon="2.63199">
        <ele>58</ele>
        <time>2026-03-05T19:05:55Z</time>
      </trkpt>
      <trkpt lat="50.78143" lon="2.63223">
        <ele>58</ele>
        <time>2026-03-05T19:05:59Z</time>
      </trkpt>
      <trkpt lat="50.78205" lon="2.6327">
        <ele>55</ele>
        <time>2026-03-05T19:06:11Z</time>
      </trkpt>
      <trkpt lat="50.78245" lon="2.63295">
        <ele>55</ele>
        <time>2026-03-05T19:06:19Z</time>
      </trkpt>
      <trkpt lat="50.78275" lon="2.6332">
        <ele>54</ele>
        <time>2026-03-05T19:06:25Z</time>
      </trkpt>
      <trkpt lat="50.78345" lon="2.63395">
        <ele>51</ele>
        <time>2026-03-05T19:06:40Z</time>
      </trkpt>
      <trkpt lat="50.78506" lon="2.6354">
        <ele>52</ele>
        <time>2026-03-05T19:07:13Z</time>
      </trkpt>
      <trkpt lat="50.78544" lon="2.63583">
        <ele>52</ele>
        <time>2026-03-05T19:07:21Z</time>
      </trkpt>
      <trkpt lat="50.7856" lon="2.63609">
        <ele>52</ele>
        <time>2026-03-05T19:07:25Z</time>
      </trkpt>
      <trkpt lat="50.78583" lon="2.63666">
        <ele>51</ele>
        <time>2026-03-05T19:07:33Z</time>
      </trkpt>
      <trkpt lat="50.78592" lon="2.63668">
        <ele>51</ele>
        <time>2026-03-05T19:07:35Z</time>
      </trkpt>
      <trkpt lat="50.78648" lon="2.63667">
        <ele>52</ele>
        <time>2026-03-05T19:07:45Z</time>
      </trkpt>
      <trkpt lat="50.78654" lon="2.63669">
        <ele>52</ele>
        <time>2026-03-05T19:07:46Z</time>
      </trkpt>
      <trkpt lat="50.78709" lon="2.63728">
        <ele>51</ele>
        <time>2026-03-05T19:07:57Z</time>
      </trkpt>
      <trkpt lat="50.78886" lon="2.63889">
        <ele>49</ele>
        <time>2026-03-05T19:08:34Z</time>
      </trkpt>
      <trkpt lat="50.78957" lon="2.63939">
        <ele>48</ele>
        <time>2026-03-05T19:08:48Z</time>
      </trkpt>
      <trkpt lat="50.79002" lon="2.63983">
        <ele>47</ele>
        <time>2026-03-05T19:08:57Z</time>
      </trkpt>
      <trkpt lat="50.79104" lon="2.64095">
        <ele>45</ele>
        <time>2026-03-05T19:09:19Z</time>
      </trkpt>
      <trkpt lat="50.79153" lon="2.6414">
        <ele>45</ele>
        <time>2026-03-05T19:09:29Z</time>
      </trkpt>
      <trkpt lat="50.79263" lon="2.64229">
        <ele>45</ele>
        <time>2026-03-05T19:09:51Z</time>
      </trkpt>
      <trkpt lat="50.79302" lon="2.64254">
        <ele>46</ele>
        <time>2026-03-05T19:09:59Z</time>
      </trkpt>
      <trkpt lat="50.79303" lon="2.64265">
        <ele>46</ele>
        <time>2026-03-05T19:10:00Z</time>
      </trkpt>
      <trkpt lat="50.79293" lon="2.64281">
        <ele>45</ele>
        <time>2026-03-05T19:10:02Z</time>
      </trkpt>
      <trkpt lat="50.7923" lon="2.64347">
        <ele>43</ele>
        <time>2026-03-05T19:10:16Z</time>
      </trkpt>
      <trkpt lat="50.79194" lon="2.64394">
        <ele>43</ele>
        <time>2026-03-05T19:10:24Z</time>
      </trkpt>
      <trkpt lat="50.79184" lon="2.64414">
        <ele>44</ele>
        <time>2026-03-05T19:10:27Z</time>
      </trkpt>
      <trkpt lat="50.7919" lon="2.64434">
        <ele>44</ele>
        <time>2026-03-05T19:10:30Z</time>
      </trkpt>
      <trkpt lat="50.79238" lon="2.64491">
        <ele>44</ele>
        <time>2026-03-05T19:10:40Z</time>
      </trkpt>
      <trkpt lat="50.79241" lon="2.64497">
        <ele>44</ele>
        <time>2026-03-05T19:10:41Z</time>
      </trkpt>
      <trkpt lat="50.79241" lon="2.6451">
        <ele>44</ele>
        <time>2026-03-05T19:10:43Z</time>
      </trkpt>
      <trkpt lat="50.79188" lon="2.646">
        <ele>45</ele>
        <time>2026-03-05T19:10:56Z</time>
      </trkpt>
      <trkpt lat="50.79183" lon="2.64639">
        <ele>46</ele>
        <time>2026-03-05T19:11:01Z</time>
      </trkpt>
      <trkpt lat="50.79181" lon="2.64715">
        <ele>47</ele>
        <time>2026-03-05T19:11:09Z</time>
      </trkpt>
      <trkpt lat="50.79175" lon="2.64761">
        <ele>49</ele>
        <time>2026-03-05T19:11:15Z</time>
      </trkpt>
      <trkpt lat="50.79159" lon="2.64813">
        <ele>51</ele>
        <time>2026-03-05T19:11:21Z</time>
      </trkpt>
      <trkpt lat="50.79123" lon="2.64889">
        <ele>54</ele>
        <time>2026-03-05T19:11:32Z</time>
      </trkpt>
      <trkpt lat="50.79109" lon="2.64945">
        <ele>56</ele>
        <time>2026-03-05T19:11:39Z</time>
      </trkpt>
      <trkpt lat="50.79094" lon="2.6499">
        <ele>57</ele>
        <time>2026-03-05T19:11:44Z</time>
      </trkpt>
      <trkpt lat="50.78981" lon="2.65249">
        <ele>70</ele>
        <time>2026-03-05T19:12:20Z</time>
      </trkpt>
      <trkpt lat="50.78954" lon="2.65306">
        <ele>72</ele>
        <time>2026-03-05T19:12:28Z</time>
      </trkpt>
      <trkpt lat="50.78927" lon="2.65395">
        <ele>78</ele>
        <time>2026-03-05T19:12:39Z</time>
      </trkpt>
      <trkpt lat="50.78908" lon="2.65422">
        <ele>81</ele>
        <time>2026-03-05T19:12:43Z</time>
      </trkpt>
      <trkpt lat="50.78886" lon="2.65468">
        <ele>84</ele>
        <time>2026-03-05T19:12:50Z</time>
      </trkpt>
      <trkpt lat="50.78872" lon="2.65488">
        <ele>86</ele>
        <time>2026-03-05T19:12:53Z</time>
      </trkpt>
      <trkpt lat="50.78837" lon="2.65552">
        <ele>93</ele>
        <time>2026-03-05T19:13:03Z</time>
      </trkpt>
      <trkpt lat="50.78822" lon="2.65573">
        <ele>97</ele>
        <time>2026-03-05T19:13:06Z</time>
      </trkpt>
      <trkpt lat="50.78802" lon="2.65587">
        <ele>100</ele>
        <time>2026-03-05T19:13:10Z</time>
      </trkpt>
      <trkpt lat="50.78782" lon="2.65608">
        <ele>102</ele>
        <time>2026-03-05T19:13:15Z</time>
      </trkpt>
      <trkpt lat="50.78773" lon="2.65632">
        <ele>104</ele>
        <time>2026-03-05T19:13:18Z</time>
      </trkpt>
      <trkpt lat="50.78762" lon="2.65644">
        <ele>106</ele>
        <time>2026-03-05T19:13:20Z</time>
      </trkpt>
      <trkpt lat="50.78747" lon="2.6567">
        <ele>108</ele>
        <time>2026-03-05T19:13:24Z</time>
      </trkpt>
      <trkpt lat="50.78739" lon="2.65675">
        <ele>108</ele>
        <time>2026-03-05T19:13:26Z</time>
      </trkpt>
      <trkpt lat="50.78731" lon="2.65715">
        <ele>108</ele>
        <time>2026-03-05T19:13:30Z</time>
      </trkpt>
      <trkpt lat="50.78736" lon="2.65762">
        <ele>107</ele>
        <time>2026-03-05T19:13:36Z</time>
      </trkpt>
      <trkpt lat="50.78728" lon="2.65777">
        <ele>108</ele>
        <time>2026-03-05T19:13:38Z</time>
      </trkpt>
      <trkpt lat="50.78724" lon="2.65842">
        <ele>110</ele>
        <time>2026-03-05T19:13:45Z</time>
      </trkpt>
      <trkpt lat="50.78715" lon="2.65856">
        <ele>113</ele>
        <time>2026-03-05T19:13:47Z</time>
      </trkpt>
      <trkpt lat="50.78691" lon="2.65915">
        <ele>120</ele>
        <time>2026-03-05T19:13:55Z</time>
      </trkpt>
      <trkpt lat="50.78681" lon="2.65917">
        <ele>122</ele>
        <time>2026-03-05T19:13:57Z</time>
      </trkpt>
      <trkpt lat="50.78672" lon="2.65929">
        <ele>124</ele>
        <time>2026-03-05T19:13:59Z</time>
      </trkpt>
      <trkpt lat="50.78628" lon="2.66075">
        <ele>124</ele>
        <time>2026-03-05T19:14:17Z</time>
      </trkpt>
      <trkpt lat="50.78616" lon="2.66089">
        <ele>126</ele>
        <time>2026-03-05T19:14:20Z</time>
      </trkpt>
      <trkpt lat="50.78588" lon="2.66059">
        <ele>126</ele>
        <time>2026-03-05T19:14:26Z</time>
      </trkpt>
      <trkpt lat="50.78574" lon="2.66056">
        <ele>125</ele>
        <time>2026-03-05T19:14:29Z</time>
      </trkpt>
      <trkpt lat="50.78522" lon="2.66082">
        <ele>121</ele>
        <time>2026-03-05T19:14:38Z</time>
      </trkpt>
      <trkpt lat="50.78512" lon="2.66082">
        <ele>120</ele>
        <time>2026-03-05T19:14:40Z</time>
      </trkpt>
      <trkpt lat="50.78492" lon="2.66073">
        <ele>118</ele>
        <time>2026-03-05T19:14:44Z</time>
      </trkpt>
      <trkpt lat="50.78476" lon="2.66053">
        <ele>116</ele>
        <time>2026-03-05T19:14:47Z</time>
      </trkpt>
      <trkpt lat="50.78447" lon="2.65986">
        <ele>112</ele>
        <time>2026-03-05T19:14:57Z</time>
      </trkpt>
      <trkpt lat="50.78438" lon="2.65956">
        <ele>111</ele>
        <time>2026-03-05T19:15:00Z</time>
      </trkpt>
      <trkpt lat="50.78398" lon="2.6578">
        <ele>104</ele>
        <time>2026-03-05T19:15:21Z</time>
      </trkpt>
      <trkpt lat="50.78381" lon="2.65722">
        <ele>102</ele>
        <time>2026-03-05T19:15:28Z</time>
      </trkpt>
      <trkpt lat="50.78349" lon="2.65624">
        <ele>101</ele>
        <time>2026-03-05T19:15:41Z</time>
      </trkpt>
      <trkpt lat="50.78343" lon="2.65613">
        <ele>100</ele>
        <time>2026-03-05T19:15:43Z</time>
      </trkpt>
      <trkpt lat="50.7834" lon="2.65611">
        <ele>100</ele>
        <time>2026-03-05T19:15:43Z</time>
      </trkpt>
      <trkpt lat="50.78334" lon="2.65613">
        <ele>100</ele>
        <time>2026-03-05T19:15:44Z</time>
      </trkpt>
      <trkpt lat="50.78324" lon="2.65636">
        <ele>100</ele>
        <time>2026-03-05T19:15:47Z</time>
      </trkpt>
      <trkpt lat="50.78288" lon="2.65752">
        <ele>97</ele>
        <time>2026-03-05T19:16:02Z</time>
      </trkpt>
      <trkpt lat="50.78264" lon="2.6582">
        <ele>96</ele>
        <time>2026-03-05T19:16:11Z</time>
      </trkpt>
      <trkpt lat="50.78244" lon="2.65866">
        <ele>97</ele>
        <time>2026-03-05T19:16:17Z</time>
      </trkpt>
      <trkpt lat="50.78217" lon="2.65917">
        <ele>98</ele>
        <time>2026-03-05T19:16:24Z</time>
      </trkpt>
      <trkpt lat="50.78202" lon="2.6596">
        <ele>99</ele>
        <time>2026-03-05T19:16:30Z</time>
      </trkpt>
      <trkpt lat="50.78192" lon="2.66021">
        <ele>101</ele>
        <time>2026-03-05T19:16:37Z</time>
      </trkpt>
      <trkpt lat="50.78191" lon="2.66073">
        <ele>101</ele>
        <time>2026-03-05T19:16:43Z</time>
      </trkpt>
      <trkpt lat="50.78203" lon="2.6626">
        <ele>108</ele>
        <time>2026-03-05T19:17:04Z</time>
      </trkpt>
      <trkpt lat="50.78196" lon="2.66294">
        <ele>111</ele>
        <time>2026-03-05T19:17:08Z</time>
      </trkpt>
      <trkpt lat="50.78193" lon="2.66301">
        <ele>111</ele>
        <time>2026-03-05T19:17:09Z</time>
      </trkpt>
      <trkpt lat="50.78178" lon="2.66319">
        <ele>111</ele>
        <time>2026-03-05T19:17:12Z</time>
      </trkpt>
      <trkpt lat="50.78145" lon="2.66335">
        <ele>110</ele>
        <time>2026-03-05T19:17:18Z</time>
      </trkpt>
      <trkpt lat="50.78134" lon="2.66336">
        <ele>110</ele>
        <time>2026-03-05T19:17:20Z</time>
      </trkpt>
      <trkpt lat="50.78117" lon="2.66326">
        <ele>108</ele>
        <time>2026-03-05T19:17:24Z</time>
      </trkpt>
      <trkpt lat="50.78097" lon="2.66308">
        <ele>106</ele>
        <time>2026-03-05T19:17:28Z</time>
      </trkpt>
      <trkpt lat="50.78069" lon="2.66277">
        <ele>105</ele>
        <time>2026-03-05T19:17:34Z</time>
      </trkpt>
      <trkpt lat="50.78013" lon="2.66207">
        <ele>100</ele>
        <time>2026-03-05T19:17:47Z</time>
      </trkpt>
      <trkpt lat="50.77971" lon="2.66172">
        <ele>98</ele>
        <time>2026-03-05T19:17:55Z</time>
      </trkpt>
      <trkpt lat="50.77948" lon="2.66159">
        <ele>98</ele>
        <time>2026-03-05T19:17:59Z</time>
      </trkpt>
      <trkpt lat="50.77921" lon="2.66149">
        <ele>99</ele>
        <time>2026-03-05T19:18:04Z</time>
      </trkpt>
      <trkpt lat="50.77872" lon="2.66146">
        <ele>97</ele>
        <time>2026-03-05T19:18:13Z</time>
      </trkpt>
      <trkpt lat="50.77839" lon="2.66149">
        <ele>95</ele>
        <time>2026-03-05T19:18:19Z</time>
      </trkpt>
      <trkpt lat="50.77805" lon="2.66157">
        <ele>93</ele>
        <time>2026-03-05T19:18:25Z</time>
      </trkpt>
      <trkpt lat="50.77722" lon="2.66195">
        <ele>85</ele>
        <time>2026-03-05T19:18:40Z</time>
      </trkpt>
      <trkpt lat="50.77671" lon="2.66213">
        <ele>81</ele>
        <time>2026-03-05T19:18:50Z</time>
      </trkpt>
      <trkpt lat="50.77489" lon="2.66256">
        <ele>70</ele>
        <time>2026-03-05T19:19:22Z</time>
      </trkpt>
      <trkpt lat="50.77465" lon="2.66267">
        <ele>69</ele>
        <time>2026-03-05T19:19:27Z</time>
      </trkpt>
      <trkpt lat="50.7743" lon="2.66289">
        <ele>67</ele>
        <time>2026-03-05T19:19:34Z</time>
      </trkpt>
      <trkpt lat="50.77397" lon="2.66314">
        <ele>66</ele>
        <time>2026-03-05T19:19:40Z</time>
      </trkpt>
      <trkpt lat="50.77354" lon="2.66342">
        <ele>65</ele>
        <time>2026-03-05T19:19:48Z</time>
      </trkpt>
      <trkpt lat="50.7732" lon="2.66357">
        <ele>63</ele>
        <time>2026-03-05T19:19:55Z</time>
      </trkpt>
      <trkpt lat="50.77276" lon="2.6637">
        <ele>61</ele>
        <time>2026-03-05T19:20:03Z</time>
      </trkpt>
      <trkpt lat="50.77244" lon="2.66375">
        <ele>60</ele>
        <time>2026-03-05T19:20:08Z</time>
      </trkpt>
      <trkpt lat="50.77223" lon="2.66375">
        <ele>60</ele>
        <time>2026-03-05T19:20:12Z</time>
      </trkpt>
      <trkpt lat="50.77103" lon="2.66348">
        <ele>56</ele>
        <time>2026-03-05T19:20:34Z</time>
      </trkpt>
      <trkpt lat="50.77073" lon="2.66355">
        <ele>56</ele>
        <time>2026-03-05T19:20:39Z</time>
      </trkpt>
      <trkpt lat="50.7695" lon="2.66394">
        <ele>52</ele>
        <time>2026-03-05T19:21:01Z</time>
      </trkpt>
      <trkpt lat="50.7689" lon="2.66421">
        <ele>51</ele>
        <time>2026-03-05T19:21:12Z</time>
      </trkpt>
      <trkpt lat="50.76703" lon="2.66547">
        <ele>45</ele>
        <time>2026-03-05T19:21:49Z</time>
      </trkpt>
      <trkpt lat="50.76655" lon="2.66594">
        <ele>44</ele>
        <time>2026-03-05T19:21:59Z</time>
      </trkpt>
      <trkpt lat="50.76593" lon="2.66666">
        <ele>44</ele>
        <time>2026-03-05T19:22:12Z</time>
      </trkpt>
      <trkpt lat="50.76482" lon="2.66754">
        <ele>45</ele>
        <time>2026-03-05T19:22:34Z</time>
      </trkpt>
      <trkpt lat="50.76398" lon="2.66828">
        <ele>44</ele>
        <time>2026-03-05T19:22:52Z</time>
      </trkpt>
      <trkpt lat="50.76395" lon="2.66849">
        <ele>44</ele>
        <time>2026-03-05T19:22:54Z</time>
      </trkpt>
      <trkpt lat="50.76427" lon="2.66967">
        <ele>41</ele>
        <time>2026-03-05T19:23:08Z</time>
      </trkpt>
      <trkpt lat="50.76435" lon="2.66989">
        <ele>41</ele>
        <time>2026-03-05T19:23:11Z</time>
      </trkpt>
      <trkpt lat="50.76446" lon="2.67006">
        <ele>41</ele>
        <time>2026-03-05T19:23:14Z</time>
      </trkpt>
      <trkpt lat="50.76466" lon="2.67018">
        <ele>42</ele>
        <time>2026-03-05T19:23:18Z</time>
      </trkpt>
      <trkpt lat="50.76498" lon="2.67025">
        <ele>44</ele>
        <time>2026-03-05T19:23:24Z</time>
      </trkpt>
      <trkpt lat="50.76531" lon="2.67025">
        <ele>45</ele>
        <time>2026-03-05T19:23:29Z</time>
      </trkpt>
      <trkpt lat="50.76548" lon="2.67028">
        <ele>45</ele>
        <time>2026-03-05T19:23:32Z</time>
      </trkpt>
      <trkpt lat="50.76561" lon="2.67033">
        <ele>46</ele>
        <time>2026-03-05T19:23:35Z</time>
      </trkpt>
      <trkpt lat="50.76574" lon="2.67047">
        <ele>48</ele>
        <time>2026-03-05T19:23:38Z</time>
      </trkpt>
      <trkpt lat="50.76582" lon="2.67068">
        <ele>50</ele>
        <time>2026-03-05T19:23:40Z</time>
      </trkpt>
      <trkpt lat="50.76592" lon="2.67111">
        <ele>52</ele>
        <time>2026-03-05T19:23:46Z</time>
      </trkpt>
      <trkpt lat="50.76615" lon="2.67179">
        <ele>55</ele>
        <time>2026-03-05T19:23:54Z</time>
      </trkpt>
      <trkpt lat="50.76634" lon="2.67247">
        <ele>56</ele>
        <time>2026-03-05T19:24:03Z</time>
      </trkpt>
      <trkpt lat="50.76651" lon="2.67293">
        <ele>55</ele>
        <time>2026-03-05T19:24:09Z</time>
      </trkpt>
      <trkpt lat="50.76732" lon="2.67454">
        <ele>56</ele>
        <time>2026-03-05T19:24:32Z</time>
      </trkpt>
      <trkpt lat="50.76752" lon="2.67504">
        <ele>55</ele>
        <time>2026-03-05T19:24:38Z</time>
      </trkpt>
      <trkpt lat="50.76775" lon="2.67589">
        <ele>53</ele>
        <time>2026-03-05T19:24:49Z</time>
      </trkpt>
      <trkpt lat="50.76787" lon="2.67625">
        <ele>52</ele>
        <time>2026-03-05T19:24:53Z</time>
      </trkpt>
      <trkpt lat="50.76792" lon="2.67631">
        <ele>52</ele>
        <time>2026-03-05T19:24:54Z</time>
      </trkpt>
      <trkpt lat="50.76808" lon="2.67634">
        <ele>52</ele>
        <time>2026-03-05T19:24:57Z</time>
      </trkpt>
      <trkpt lat="50.76959" lon="2.6759">
        <ele>59</ele>
        <time>2026-03-05T19:25:25Z</time>
      </trkpt>
      <trkpt lat="50.77012" lon="2.67552">
        <ele>62</ele>
        <time>2026-03-05T19:25:35Z</time>
      </trkpt>
      <trkpt lat="50.77035" lon="2.6754">
        <ele>63</ele>
        <time>2026-03-05T19:25:39Z</time>
      </trkpt>
      <trkpt lat="50.77077" lon="2.67526">
        <ele>64</ele>
        <time>2026-03-05T19:25:47Z</time>
      </trkpt>
      <trkpt lat="50.7711" lon="2.67509">
        <ele>65</ele>
        <time>2026-03-05T19:25:53Z</time>
      </trkpt>
      <trkpt lat="50.77183" lon="2.67462">
        <ele>69</ele>
        <time>2026-03-05T19:26:07Z</time>
      </trkpt>
      <trkpt lat="50.77205" lon="2.67445">
        <ele>70</ele>
        <time>2026-03-05T19:26:12Z</time>
      </trkpt>
      <trkpt lat="50.77226" lon="2.67424">
        <ele>71</ele>
        <time>2026-03-05T19:26:16Z</time>
      </trkpt>
      <trkpt lat="50.77258" lon="2.67404">
        <ele>71</ele>
        <time>2026-03-05T19:26:22Z</time>
      </trkpt>
      <trkpt lat="50.77309" lon="2.67363">
        <ele>72</ele>
        <time>2026-03-05T19:26:32Z</time>
      </trkpt>
      <trkpt lat="50.77464" lon="2.67272">
        <ele>78</ele>
        <time>2026-03-05T19:27:02Z</time>
      </trkpt>
      <trkpt lat="50.77617" lon="2.67173">
        <ele>85</ele>
        <time>2026-03-05T19:27:31Z</time>
      </trkpt>
      <trkpt lat="50.7766" lon="2.67139">
        <ele>87</ele>
        <time>2026-03-05T19:27:40Z</time>
      </trkpt>
      <trkpt lat="50.77758" lon="2.67078">
        <ele>92</ele>
        <time>2026-03-05T19:27:58Z</time>
      </trkpt>
      <trkpt lat="50.77787" lon="2.67067">
        <ele>94</ele>
        <time>2026-03-05T19:28:04Z</time>
      </trkpt>
      <trkpt lat="50.77803" lon="2.67055">
        <ele>95</ele>
        <time>2026-03-05T19:28:07Z</time>
      </trkpt>
      <trkpt lat="50.7786" lon="2.66977">
        <ele>99</ele>
        <time>2026-03-05T19:28:20Z</time>
      </trkpt>
      <trkpt lat="50.77923" lon="2.66872">
        <ele>102</ele>
        <time>2026-03-05T19:28:37Z</time>
      </trkpt>
      <trkpt lat="50.7794" lon="2.66852">
        <ele>103</ele>
        <time>2026-03-05T19:28:40Z</time>
      </trkpt>
      <trkpt lat="50.77979" lon="2.66818">
        <ele>106</ele>
        <time>2026-03-05T19:28:48Z</time>
      </trkpt>
      <trkpt lat="50.77987" lon="2.66805">
        <ele>107</ele>
        <time>2026-03-05T19:28:50Z</time>
      </trkpt>
      <trkpt lat="50.77993" lon="2.66789">
        <ele>108</ele>
        <time>2026-03-05T19:28:52Z</time>
      </trkpt>
      <trkpt lat="50.77998" lon="2.66763">
        <ele>108</ele>
        <time>2026-03-05T19:28:55Z</time>
      </trkpt>
      <trkpt lat="50.77996" lon="2.6665">
        <ele>106</ele>
        <time>2026-03-05T19:29:08Z</time>
      </trkpt>
      <trkpt lat="50.77999" lon="2.66623">
        <ele>105</ele>
        <time>2026-03-05T19:29:11Z</time>
      </trkpt>
      <trkpt lat="50.78006" lon="2.66598">
        <ele>105</ele>
        <time>2026-03-05T19:29:14Z</time>
      </trkpt>
      <trkpt lat="50.78013" lon="2.66583">
        <ele>105</ele>
        <time>2026-03-05T19:29:16Z</time>
      </trkpt>
      <trkpt lat="50.78073" lon="2.66508">
        <ele>112</ele>
        <time>2026-03-05T19:29:30Z</time>
      </trkpt>
      <trkpt lat="50.78092" lon="2.66477">
        <ele>113</ele>
        <time>2026-03-05T19:29:35Z</time>
      </trkpt>
      <trkpt lat="50.78102" lon="2.66449">
        <ele>113</ele>
        <time>2026-03-05T19:29:38Z</time>
      </trkpt>
      <trkpt lat="50.78114" lon="2.66394">
        <ele>112</ele>
        <time>2026-03-05T19:29:45Z</time>
      </trkpt>
      <trkpt lat="50.78125" lon="2.66364">
        <ele>111</ele>
        <time>2026-03-05T19:29:49Z</time>
      </trkpt>
      <trkpt lat="50.78134" lon="2.66353">
        <ele>111</ele>
        <time>2026-03-05T19:29:51Z</time>
      </trkpt>
      <trkpt lat="50.78141" lon="2.66358">
        <ele>112</ele>
        <time>2026-03-05T19:29:52Z</time>
      </trkpt>
      <trkpt lat="50.78197" lon="2.66421">
        <ele>123</ele>
        <time>2026-03-05T19:30:05Z</time>
      </trkpt>
      <trkpt lat="50.78208" lon="2.6644">
        <ele>126</ele>
        <time>2026-03-05T19:30:07Z</time>
      </trkpt>
      <trkpt lat="50.78206" lon="2.66488">
        <ele>131</ele>
        <time>2026-03-05T19:30:13Z</time>
      </trkpt>
      <trkpt lat="50.78199" lon="2.66504">
        <ele>132</ele>
        <time>2026-03-05T19:30:15Z</time>
      </trkpt>
      <trkpt lat="50.78185" lon="2.66561">
        <ele>135</ele>
        <time>2026-03-05T19:30:22Z</time>
      </trkpt>
      <trkpt lat="50.78176" lon="2.6658">
        <ele>135</ele>
        <time>2026-03-05T19:30:25Z</time>
      </trkpt>
      <trkpt lat="50.78167" lon="2.66611">
        <ele>135</ele>
        <time>2026-03-05T19:30:28Z</time>
      </trkpt>
      <trkpt lat="50.7816" lon="2.66637">
        <ele>135</ele>
        <time>2026-03-05T19:30:32Z</time>
      </trkpt>
      <trkpt lat="50.78154" lon="2.66676">
        <ele>135</ele>
        <time>2026-03-05T19:30:36Z</time>
      </trkpt>
      <trkpt lat="50.78159" lon="2.6681">
        <ele>138</ele>
        <time>2026-03-05T19:30:51Z</time>
      </trkpt>
      <trkpt lat="50.78163" lon="2.66846">
        <ele>138</ele>
        <time>2026-03-05T19:30:55Z</time>
      </trkpt>
      <trkpt lat="50.78179" lon="2.66913">
        <ele>140</ele>
        <time>2026-03-05T19:31:03Z</time>
      </trkpt>
      <trkpt lat="50.7821" lon="2.66997">
        <ele>144</ele>
        <time>2026-03-05T19:31:14Z</time>
      </trkpt>
      <trkpt lat="50.78224" lon="2.67026">
        <ele>147</ele>
        <time>2026-03-05T19:31:18Z</time>
      </trkpt>
      <trkpt lat="50.78263" lon="2.67083">
        <ele>153</ele>
        <time>2026-03-05T19:31:28Z</time>
      </trkpt>
      <trkpt lat="50.78259" lon="2.67087">
        <ele>153</ele>
        <time>2026-03-05T19:31:29Z</time>
      </trkpt>
      <trkpt lat="50.78263" lon="2.67083">
        <ele>153</ele>
        <time>2026-03-05T19:31:30Z</time>
      </trkpt>
      <trkpt lat="50.78287" lon="2.66983">
        <ele>155</ele>
        <time>2026-03-05T19:31:42Z</time>
      </trkpt>
      <trkpt lat="50.78309" lon="2.66856">
        <ele>158</ele>
        <time>2026-03-05T19:31:56Z</time>
      </trkpt>
      <trkpt lat="50.78343" lon="2.66747">
        <ele>164</ele>
        <time>2026-03-05T19:32:10Z</time>
      </trkpt>
      <trkpt lat="50.78356" lon="2.66751">
        <ele>164</ele>
        <time>2026-03-05T19:32:12Z</time>
      </trkpt>
      <trkpt lat="50.78356" lon="2.66759">
        <ele>164</ele>
        <time>2026-03-05T19:32:13Z</time>
      </trkpt>
      <trkpt lat="50.78382" lon="2.66764">
        <ele>164</ele>
        <time>2026-03-05T19:32:18Z</time>
      </trkpt>
      <trkpt lat="50.78403" lon="2.66757">
        <ele>165</ele>
        <time>2026-03-05T19:32:22Z</time>
      </trkpt>
      <trkpt lat="50.78423" lon="2.66728">
        <ele>164</ele>
        <time>2026-03-05T19:32:27Z</time>
      </trkpt>
      <trkpt lat="50.78456" lon="2.66647">
        <ele>164</ele>
        <time>2026-03-05T19:32:38Z</time>
      </trkpt>
      <trkpt lat="50.78477" lon="2.66629">
        <ele>163</ele>
        <time>2026-03-05T19:32:42Z</time>
      </trkpt>
      <trkpt lat="50.78517" lon="2.66623">
        <ele>161</ele>
        <time>2026-03-05T19:32:49Z</time>
      </trkpt>
      <trkpt lat="50.78555" lon="2.66623">
        <ele>158</ele>
        <time>2026-03-05T19:32:56Z</time>
      </trkpt>
      <trkpt lat="50.78583" lon="2.66634">
        <ele>156</ele>
        <time>2026-03-05T19:33:01Z</time>
      </trkpt>
      <trkpt lat="50.78598" lon="2.66649">
        <ele>154</ele>
        <time>2026-03-05T19:33:04Z</time>
      </trkpt>
      <trkpt lat="50.78619" lon="2.66682">
        <ele>150</ele>
        <time>2026-03-05T19:33:09Z</time>
      </trkpt>
      <trkpt lat="50.7863" lon="2.66712">
        <ele>147</ele>
        <time>2026-03-05T19:33:13Z</time>
      </trkpt>
      <trkpt lat="50.78681" lon="2.66945">
        <ele>124</ele>
        <time>2026-03-05T19:33:41Z</time>
      </trkpt>
      <trkpt lat="50.78709" lon="2.67035">
        <ele>117</ele>
        <time>2026-03-05T19:33:52Z</time>
      </trkpt>
      <trkpt lat="50.7873" lon="2.67118">
        <ele>115</ele>
        <time>2026-03-05T19:34:02Z</time>
      </trkpt>
      <trkpt lat="50.78781" lon="2.67346">
        <ele>106</ele>
        <time>2026-03-05T19:34:29Z</time>
      </trkpt>
      <trkpt lat="50.78777" lon="2.67363">
        <ele>107</ele>
        <time>2026-03-05T19:34:31Z</time>
      </trkpt>
      <trkpt lat="50.78771" lon="2.67369">
        <ele>107</ele>
        <time>2026-03-05T19:34:33Z</time>
      </trkpt>
      <trkpt lat="50.78758" lon="2.67376">
        <ele>108</ele>
        <time>2026-03-05T19:34:35Z</time>
      </trkpt>
      <trkpt lat="50.78734" lon="2.67378">
        <ele>108</ele>
        <time>2026-03-05T19:34:39Z</time>
      </trkpt>
      <trkpt lat="50.78645" lon="2.67346">
        <ele>105</ele>
        <time>2026-03-05T19:34:56Z</time>
      </trkpt>
      <trkpt lat="50.7863" lon="2.67343">
        <ele>105</ele>
        <time>2026-03-05T19:34:58Z</time>
      </trkpt>
      <trkpt lat="50.78619" lon="2.67351">
        <ele>105</ele>
        <time>2026-03-05T19:35:01Z</time>
      </trkpt>
      <trkpt lat="50.78613" lon="2.67372">
        <ele>105</ele>
        <time>2026-03-05T19:35:03Z</time>
      </trkpt>
      <trkpt lat="50.78607" lon="2.67424">
        <ele>103</ele>
        <time>2026-03-05T19:35:09Z</time>
      </trkpt>
      <trkpt lat="50.78598" lon="2.67465">
        <ele>101</ele>
        <time>2026-03-05T19:35:14Z</time>
      </trkpt>
      <trkpt lat="50.78586" lon="2.67507">
        <ele>99</ele>
        <time>2026-03-05T19:35:19Z</time>
      </trkpt>
      <trkpt lat="50.78564" lon="2.67559">
        <ele>97</ele>
        <time>2026-03-05T19:35:26Z</time>
      </trkpt>
      <trkpt lat="50.78557" lon="2.67603">
        <ele>97</ele>
        <time>2026-03-05T19:35:31Z</time>
      </trkpt>
      <trkpt lat="50.78552" lon="2.67694">
        <ele>96</ele>
        <time>2026-03-05T19:35:42Z</time>
      </trkpt>
      <trkpt lat="50.78508" lon="2.6794">
        <ele>93</ele>
        <time>2026-03-05T19:36:10Z</time>
      </trkpt>
      <trkpt lat="50.78475" lon="2.68196">
        <ele>87</ele>
        <time>2026-03-05T19:36:40Z</time>
      </trkpt>
      <trkpt lat="50.78469" lon="2.68227">
        <ele>86</ele>
        <time>2026-03-05T19:36:43Z</time>
      </trkpt>
      <trkpt lat="50.7846" lon="2.68257">
        <ele>85</ele>
        <time>2026-03-05T19:36:47Z</time>
      </trkpt>
      <trkpt lat="50.78444" lon="2.68301">
        <ele>84</ele>
        <time>2026-03-05T19:36:53Z</time>
      </trkpt>
      <trkpt lat="50.78408" lon="2.68386">
        <ele>81</ele>
        <time>2026-03-05T19:37:04Z</time>
      </trkpt>
      <trkpt lat="50.784" lon="2.68418">
        <ele>80</ele>
        <time>2026-03-05T19:37:08Z</time>
      </trkpt>
      <trkpt lat="50.78399" lon="2.68453">
        <ele>79</ele>
        <time>2026-03-05T19:37:12Z</time>
      </trkpt>
      <trkpt lat="50.78412" lon="2.68619">
        <ele>72</ele>
        <time>2026-03-05T19:37:31Z</time>
      </trkpt>
      <trkpt lat="50.78412" lon="2.68668">
        <ele>71</ele>
        <time>2026-03-05T19:37:36Z</time>
      </trkpt>
      <trkpt lat="50.78408" lon="2.68715">
        <ele>70</ele>
        <time>2026-03-05T19:37:42Z</time>
      </trkpt>
      <trkpt lat="50.78379" lon="2.68857">
        <ele>66</ele>
        <time>2026-03-05T19:37:59Z</time>
      </trkpt>
      <trkpt lat="50.78365" lon="2.68913">
        <ele>65</ele>
        <time>2026-03-05T19:38:05Z</time>
      </trkpt>
      <trkpt lat="50.78323" lon="2.69027">
        <ele>64</ele>
        <time>2026-03-05T19:38:20Z</time>
      </trkpt>
      <trkpt lat="50.78312" lon="2.69066">
        <ele>64</ele>
        <time>2026-03-05T19:38:25Z</time>
      </trkpt>
      <trkpt lat="50.7831" lon="2.69107">
        <ele>64</ele>
        <time>2026-03-05T19:38:30Z</time>
      </trkpt>
      <trkpt lat="50.78325" lon="2.69377">
        <ele>60</ele>
        <time>2026-03-05T19:39:00Z</time>
      </trkpt>
      <trkpt lat="50.7833" lon="2.69416">
        <ele>58</ele>
        <time>2026-03-05T19:39:05Z</time>
      </trkpt>
      <trkpt lat="50.78338" lon="2.69424">
        <ele>58</ele>
        <time>2026-03-05T19:39:06Z</time>
      </trkpt>
      <trkpt lat="50.78357" lon="2.69409">
        <ele>58</ele>
        <time>2026-03-05T19:39:10Z</time>
      </trkpt>
      <trkpt lat="50.78377" lon="2.694">
        <ele>58</ele>
        <time>2026-03-05T19:39:14Z</time>
      </trkpt>
      <trkpt lat="50.78414" lon="2.69394">
        <ele>58</ele>
        <time>2026-03-05T19:39:20Z</time>
      </trkpt>
      <trkpt lat="50.78419" lon="2.69391">
        <ele>58</ele>
        <time>2026-03-05T19:39:21Z</time>
      </trkpt>
      <trkpt lat="50.78427" lon="2.69371">
        <ele>58</ele>
        <time>2026-03-05T19:39:24Z</time>
      </trkpt>
      <trkpt lat="50.78455" lon="2.69238">
        <ele>59</ele>
        <time>2026-03-05T19:39:40Z</time>
      </trkpt>
      <trkpt lat="50.78471" lon="2.69142">
        <ele>61</ele>
        <time>2026-03-05T19:39:51Z</time>
      </trkpt>
      <trkpt lat="50.78474" lon="2.69135">
        <ele>61</ele>
        <time>2026-03-05T19:39:52Z</time>
      </trkpt>
      <trkpt lat="50.7848" lon="2.69126">
        <ele>61</ele>
        <time>2026-03-05T19:39:53Z</time>
      </trkpt>
      <trkpt lat="50.78536" lon="2.69085">
        <ele>61</ele>
        <time>2026-03-05T19:40:04Z</time>
      </trkpt>
      <trkpt lat="50.78554" lon="2.69073">
        <ele>61</ele>
        <time>2026-03-05T19:40:08Z</time>
      </trkpt>
      <trkpt lat="50.78593" lon="2.69054">
        <ele>62</ele>
        <time>2026-03-05T19:40:15Z</time>
      </trkpt>
      <trkpt lat="50.78613" lon="2.6904">
        <ele>63</ele>
        <time>2026-03-05T19:40:19Z</time>
      </trkpt>
      <trkpt lat="50.78635" lon="2.69017">
        <ele>63</ele>
        <time>2026-03-05T19:40:24Z</time>
      </trkpt>
      <trkpt lat="50.78683" lon="2.68952">
        <ele>64</ele>
        <time>2026-03-05T19:40:35Z</time>
      </trkpt>
      <trkpt lat="50.78713" lon="2.68917">
        <ele>65</ele>
        <time>2026-03-05T19:40:41Z</time>
      </trkpt>
      <trkpt lat="50.78771" lon="2.68864">
        <ele>69</ele>
        <time>2026-03-05T19:40:53Z</time>
      </trkpt>
      <trkpt lat="50.78788" lon="2.68839">
        <ele>71</ele>
        <time>2026-03-05T19:40:58Z</time>
      </trkpt>
      <trkpt lat="50.78802" lon="2.6881">
        <ele>73</ele>
        <time>2026-03-05T19:41:02Z</time>
      </trkpt>
      <trkpt lat="50.78839" lon="2.68718">
        <ele>77</ele>
        <time>2026-03-05T19:41:14Z</time>
      </trkpt>
      <trkpt lat="50.78872" lon="2.68664">
        <ele>81</ele>
        <time>2026-03-05T19:41:22Z</time>
      </trkpt>
      <trkpt lat="50.78898" lon="2.68615">
        <ele>84</ele>
        <time>2026-03-05T19:41:30Z</time>
      </trkpt>
      <trkpt lat="50.78927" lon="2.68572">
        <ele>87</ele>
        <time>2026-03-05T19:41:37Z</time>
      </trkpt>
      <trkpt lat="50.78977" lon="2.68513">
        <ele>94</ele>
        <time>2026-03-05T19:41:48Z</time>
      </trkpt>
      <trkpt lat="50.78988" lon="2.68497">
        <ele>96</ele>
        <time>2026-03-05T19:41:50Z</time>
      </trkpt>
      <trkpt lat="50.79" lon="2.68471">
        <ele>98</ele>
        <time>2026-03-05T19:41:54Z</time>
      </trkpt>
      <trkpt lat="50.79003" lon="2.68451">
        <ele>99</ele>
        <time>2026-03-05T19:41:56Z</time>
      </trkpt>
      <trkpt lat="50.79012" lon="2.68342">
        <ele>104</ele>
        <time>2026-03-05T19:42:09Z</time>
      </trkpt>
      <trkpt lat="50.79011" lon="2.68248">
        <ele>108</ele>
        <time>2026-03-05T19:42:19Z</time>
      </trkpt>
      <trkpt lat="50.79015" lon="2.68217">
        <ele>109</ele>
        <time>2026-03-05T19:42:23Z</time>
      </trkpt>
      <trkpt lat="50.79022" lon="2.6819">
        <ele>111</ele>
        <time>2026-03-05T19:42:26Z</time>
      </trkpt>
      <trkpt lat="50.79028" lon="2.68173">
        <ele>113</ele>
        <time>2026-03-05T19:42:28Z</time>
      </trkpt>
      <trkpt lat="50.79045" lon="2.68141">
        <ele>116</ele>
        <time>2026-03-05T19:42:33Z</time>
      </trkpt>
      <trkpt lat="50.79091" lon="2.68068">
        <ele>124</ele>
        <time>2026-03-05T19:42:45Z</time>
      </trkpt>
      <trkpt lat="50.79101" lon="2.68043">
        <ele>126</ele>
        <time>2026-03-05T19:42:48Z</time>
      </trkpt>
      <trkpt lat="50.79114" lon="2.67992">
        <ele>127</ele>
        <time>2026-03-05T19:42:54Z</time>
      </trkpt>
      <trkpt lat="50.79127" lon="2.67955">
        <ele>128</ele>
        <time>2026-03-05T19:42:59Z</time>
      </trkpt>
      <trkpt lat="50.79161" lon="2.67901">
        <ele>130</ele>
        <time>2026-03-05T19:43:07Z</time>
      </trkpt>
      <trkpt lat="50.79141" lon="2.67933">
        <ele>129</ele>
        <time>2026-03-05T19:43:12Z</time>
      </trkpt>
      <trkpt lat="50.7914" lon="2.6793">
        <ele>129</ele>
        <time>2026-03-05T19:43:13Z</time>
      </trkpt>
      <trkpt lat="50.79158" lon="2.67903">
        <ele>130</ele>
        <time>2026-03-05T19:43:17Z</time>
      </trkpt>
      <trkpt lat="50.79193" lon="2.67814">
        <ele>129</ele>
        <time>2026-03-05T19:43:29Z</time>
      </trkpt>
      <trkpt lat="50.79202" lon="2.67828">
        <ele>129</ele>
        <time>2026-03-05T19:43:31Z</time>
      </trkpt>
      <trkpt lat="50.79235" lon="2.67902">
        <ele>130</ele>
        <time>2026-03-05T19:43:42Z</time>
      </trkpt>
      <trkpt lat="50.7925" lon="2.67952">
        <ele>132</ele>
        <time>2026-03-05T19:43:48Z</time>
      </trkpt>
      <trkpt lat="50.7927" lon="2.67946">
        <ele>130</ele>
        <time>2026-03-05T19:43:51Z</time>
      </trkpt>
      <trkpt lat="50.79278" lon="2.67949">
        <ele>130</ele>
        <time>2026-03-05T19:43:53Z</time>
      </trkpt>
      <trkpt lat="50.79286" lon="2.67958">
        <ele>130</ele>
        <time>2026-03-05T19:43:55Z</time>
      </trkpt>
      <trkpt lat="50.79331" lon="2.68078">
        <ele>129</ele>
        <time>2026-03-05T19:44:10Z</time>
      </trkpt>
      <trkpt lat="50.7935" lon="2.6814">
        <ele>127</ele>
        <time>2026-03-05T19:44:18Z</time>
      </trkpt>
      <trkpt lat="50.79374" lon="2.68255">
        <ele>124</ele>
        <time>2026-03-05T19:44:32Z</time>
      </trkpt>
      <trkpt lat="50.79396" lon="2.68326">
        <ele>121</ele>
        <time>2026-03-05T19:44:41Z</time>
      </trkpt>
      <trkpt lat="50.79406" lon="2.68378">
        <ele>119</ele>
        <time>2026-03-05T19:44:47Z</time>
      </trkpt>
      <trkpt lat="50.79437" lon="2.68584">
        <ele>112</ele>
        <time>2026-03-05T19:45:10Z</time>
      </trkpt>
      <trkpt lat="50.79454" lon="2.68638">
        <ele>112</ele>
        <time>2026-03-05T19:45:17Z</time>
      </trkpt>
      <trkpt lat="50.7947" lon="2.68666">
        <ele>110</ele>
        <time>2026-03-05T19:45:21Z</time>
      </trkpt>
      <trkpt lat="50.79525" lon="2.68738">
        <ele>102</ele>
        <time>2026-03-05T19:45:34Z</time>
      </trkpt>
      <trkpt lat="50.79537" lon="2.68762">
        <ele>100</ele>
        <time>2026-03-05T19:45:38Z</time>
      </trkpt>
      <trkpt lat="50.79551" lon="2.6881">
        <ele>98</ele>
        <time>2026-03-05T19:45:44Z</time>
      </trkpt>
      <trkpt lat="50.7956" lon="2.68824">
        <ele>97</ele>
        <time>2026-03-05T19:45:46Z</time>
      </trkpt>
      <trkpt lat="50.79589" lon="2.68856">
        <ele>93</ele>
        <time>2026-03-05T19:45:52Z</time>
      </trkpt>
      <trkpt lat="50.79595" lon="2.68866">
        <ele>92</ele>
        <time>2026-03-05T19:45:54Z</time>
      </trkpt>
      <trkpt lat="50.79597" lon="2.68865">
        <ele>92</ele>
        <time>2026-03-05T19:45:54Z</time>
      </trkpt>
      <trkpt lat="50.79647" lon="2.68948">
        <ele>86</ele>
        <time>2026-03-05T19:46:07Z</time>
      </trkpt>
      <trkpt lat="50.7966" lon="2.68976">
        <ele>85</ele>
        <time>2026-03-05T19:46:11Z</time>
      </trkpt>
      <trkpt lat="50.79679" lon="2.68978">
        <ele>84</ele>
        <time>2026-03-05T19:46:14Z</time>
      </trkpt>
      <trkpt lat="50.79814" lon="2.69041">
        <ele>75</ele>
        <time>2026-03-05T19:46:39Z</time>
      </trkpt>
      <trkpt lat="50.79917" lon="2.69107">
        <ele>72</ele>
        <time>2026-03-05T19:46:59Z</time>
      </trkpt>
      <trkpt lat="50.79928" lon="2.69107">
        <ele>73</ele>
        <time>2026-03-05T19:47:01Z</time>
      </trkpt>
      <trkpt lat="50.79928" lon="2.69118">
        <ele>72</ele>
        <time>2026-03-05T19:47:02Z</time>
      </trkpt>
      <trkpt lat="50.79943" lon="2.69208">
        <ele>70</ele>
        <time>2026-03-05T19:47:13Z</time>
      </trkpt>
      <trkpt lat="50.79947" lon="2.69221">
        <ele>69</ele>
        <time>2026-03-05T19:47:14Z</time>
      </trkpt>
      <trkpt lat="50.79943" lon="2.69249">
        <ele>68</ele>
        <time>2026-03-05T19:47:18Z</time>
      </trkpt>
      <trkpt lat="50.7996" lon="2.69448">
        <ele>59</ele>
        <time>2026-03-05T19:47:40Z</time>
      </trkpt>
      <trkpt lat="50.79945" lon="2.69637">
        <ele>56</ele>
        <time>2026-03-05T19:48:02Z</time>
      </trkpt>
      <trkpt lat="50.79939" lon="2.69665">
        <ele>56</ele>
        <time>2026-03-05T19:48:05Z</time>
      </trkpt>
      <trkpt lat="50.79851" lon="2.69727">
        <ele>60</ele>
        <time>2026-03-05T19:48:22Z</time>
      </trkpt>
      <trkpt lat="50.79838" lon="2.6974">
        <ele>61</ele>
        <time>2026-03-05T19:48:25Z</time>
      </trkpt>
      <trkpt lat="50.79823" lon="2.69764">
        <ele>61</ele>
        <time>2026-03-05T19:48:29Z</time>
      </trkpt>
      <trkpt lat="50.7981" lon="2.69809">
        <ele>62</ele>
        <time>2026-03-05T19:48:34Z</time>
      </trkpt>
      <trkpt lat="50.79773" lon="2.6998">
        <ele>61</ele>
        <time>2026-03-05T19:48:54Z</time>
      </trkpt>
      <trkpt lat="50.79773" lon="2.70019">
        <ele>61</ele>
        <time>2026-03-05T19:48:59Z</time>
      </trkpt>
      <trkpt lat="50.7978" lon="2.70086">
        <ele>63</ele>
        <time>2026-03-05T19:49:06Z</time>
      </trkpt>
      <trkpt lat="50.79778" lon="2.70111">
        <ele>64</ele>
        <time>2026-03-05T19:49:09Z</time>
      </trkpt>
      <trkpt lat="50.79767" lon="2.70135">
        <ele>66</ele>
        <time>2026-03-05T19:49:13Z</time>
      </trkpt>
      <trkpt lat="50.7975" lon="2.70159">
        <ele>68</ele>
        <time>2026-03-05T19:49:17Z</time>
      </trkpt>
      <trkpt lat="50.79675" lon="2.70216">
        <ele>72</ele>
        <time>2026-03-05T19:49:31Z</time>
      </trkpt>
      <trkpt lat="50.79593" lon="2.70272">
        <ele>75</ele>
        <time>2026-03-05T19:49:47Z</time>
      </trkpt>
      <trkpt lat="50.7957" lon="2.70304">
        <ele>77</ele>
        <time>2026-03-05T19:49:53Z</time>
      </trkpt>
      <trkpt lat="50.7952" lon="2.70388">
        <ele>83</ele>
        <time>2026-03-05T19:50:06Z</time>
      </trkpt>
      <trkpt lat="50.79507" lon="2.70405">
        <ele>84</ele>
        <time>2026-03-05T19:50:09Z</time>
      </trkpt>
      <trkpt lat="50.79482" lon="2.70425">
        <ele>86</ele>
        <time>2026-03-05T19:50:14Z</time>
      </trkpt>
      <trkpt lat="50.79349" lon="2.70478">
        <ele>97</ele>
        <time>2026-03-05T19:50:38Z</time>
      </trkpt>
      <trkpt lat="50.79323" lon="2.70483">
        <ele>98</ele>
        <time>2026-03-05T19:50:43Z</time>
      </trkpt>
      <trkpt lat="50.79237" lon="2.70468">
        <ele>100</ele>
        <time>2026-03-05T19:50:58Z</time>
      </trkpt>
      <trkpt lat="50.79213" lon="2.70476">
        <ele>100</ele>
        <time>2026-03-05T19:51:03Z</time>
      </trkpt>
      <trkpt lat="50.79185" lon="2.705">
        <ele>100</ele>
        <time>2026-03-05T19:51:08Z</time>
      </trkpt>
      <trkpt lat="50.79078" lon="2.70613">
        <ele>98</ele>
        <time>2026-03-05T19:51:31Z</time>
      </trkpt>
      <trkpt lat="50.79052" lon="2.70628">
        <ele>97</ele>
        <time>2026-03-05T19:51:36Z</time>
      </trkpt>
      <trkpt lat="50.79052" lon="2.70706">
        <ele>94</ele>
        <time>2026-03-05T19:51:45Z</time>
      </trkpt>
      <trkpt lat="50.79075" lon="2.70828">
        <ele>93</ele>
        <time>2026-03-05T19:51:59Z</time>
      </trkpt>
      <trkpt lat="50.79069" lon="2.70858">
        <ele>92</ele>
        <time>2026-03-05T19:52:03Z</time>
      </trkpt>
      <trkpt lat="50.79027" lon="2.70898">
        <ele>90</ele>
        <time>2026-03-05T19:52:11Z</time>
      </trkpt>
      <trkpt lat="50.78954" lon="2.70976">
        <ele>86</ele>
        <time>2026-03-05T19:52:27Z</time>
      </trkpt>
      <trkpt lat="50.78922" lon="2.71007">
        <ele>85</ele>
        <time>2026-03-05T19:52:34Z</time>
      </trkpt>
      <trkpt lat="50.78888" lon="2.71033">
        <ele>84</ele>
        <time>2026-03-05T19:52:41Z</time>
      </trkpt>
      <trkpt lat="50.78854" lon="2.71055">
        <ele>84</ele>
        <time>2026-03-05T19:52:47Z</time>
      </trkpt>
      <trkpt lat="50.78788" lon="2.71092">
        <ele>84</ele>
        <time>2026-03-05T19:53:00Z</time>
      </trkpt>
      <trkpt lat="50.78744" lon="2.71128">
        <ele>84</ele>
        <time>2026-03-05T19:53:08Z</time>
      </trkpt>
      <trkpt lat="50.78713" lon="2.71172">
        <ele>85</ele>
        <time>2026-03-05T19:53:16Z</time>
      </trkpt>
      <trkpt lat="50.78709" lon="2.7119">
        <ele>85</ele>
        <time>2026-03-05T19:53:18Z</time>
      </trkpt>
      <trkpt lat="50.78709" lon="2.71218">
        <ele>86</ele>
        <time>2026-03-05T19:53:21Z</time>
      </trkpt>
      <trkpt lat="50.78735" lon="2.71404">
        <ele>84</ele>
        <time>2026-03-05T19:53:42Z</time>
      </trkpt>
      <trkpt lat="50.78736" lon="2.71443">
        <ele>84</ele>
        <time>2026-03-05T19:53:47Z</time>
      </trkpt>
      <trkpt lat="50.78731" lon="2.71468">
        <ele>83</ele>
        <time>2026-03-05T19:53:50Z</time>
      </trkpt>
      <trkpt lat="50.78724" lon="2.71491">
        <ele>83</ele>
        <time>2026-03-05T19:53:53Z</time>
      </trkpt>
      <trkpt lat="50.78677" lon="2.71606">
        <ele>83</ele>
        <time>2026-03-05T19:54:08Z</time>
      </trkpt>
      <trkpt lat="50.78658" lon="2.7166">
        <ele>81</ele>
        <time>2026-03-05T19:54:15Z</time>
      </trkpt>
      <trkpt lat="50.786" lon="2.71842">
        <ele>81</ele>
        <time>2026-03-05T19:54:38Z</time>
      </trkpt>
      <trkpt lat="50.78552" lon="2.72007">
        <ele>81</ele>
        <time>2026-03-05T19:54:58Z</time>
      </trkpt>
      <trkpt lat="50.78527" lon="2.72107">
        <ele>82</ele>
        <time>2026-03-05T19:55:10Z</time>
      </trkpt>
      <trkpt lat="50.78523" lon="2.72112">
        <ele>82</ele>
        <time>2026-03-05T19:55:11Z</time>
      </trkpt>
      <trkpt lat="50.78518" lon="2.72113">
        <ele>82</ele>
        <time>2026-03-05T19:55:12Z</time>
      </trkpt>
      <trkpt lat="50.78514" lon="2.7211">
        <ele>82</ele>
        <time>2026-03-05T19:55:13Z</time>
      </trkpt>
      <trkpt lat="50.78466" lon="2.7204">
        <ele>83</ele>
        <time>2026-03-05T19:55:25Z</time>
      </trkpt>
      <trkpt lat="50.78422" lon="2.7197">
        <ele>84</ele>
        <time>2026-03-05T19:55:36Z</time>
      </trkpt>
      <trkpt lat="50.78413" lon="2.71967">
        <ele>85</ele>
        <time>2026-03-05T19:55:37Z</time>
      </trkpt>
      <trkpt lat="50.78359" lon="2.72044">
        <ele>88</ele>
        <time>2026-03-05T19:55:50Z</time>
      </trkpt>
      <trkpt lat="50.78317" lon="2.72109">
        <ele>93</ele>
        <time>2026-03-05T19:56:01Z</time>
      </trkpt>
      <trkpt lat="50.78311" lon="2.72116">
        <ele>94</ele>
        <time>2026-03-05T19:56:02Z</time>
      </trkpt>
      <trkpt lat="50.78298" lon="2.72123">
        <ele>95</ele>
        <time>2026-03-05T19:56:05Z</time>
      </trkpt>
      <trkpt lat="50.78279" lon="2.72129">
        <ele>97</ele>
        <time>2026-03-05T19:56:08Z</time>
      </trkpt>
      <trkpt lat="50.7826" lon="2.72128">
        <ele>98</ele>
        <time>2026-03-05T19:56:11Z</time>
      </trkpt>
      <trkpt lat="50.78234" lon="2.72118">
        <ele>100</ele>
        <time>2026-03-05T19:56:16Z</time>
      </trkpt>
      <trkpt lat="50.78146" lon="2.72043">
        <ele>101</ele>
        <time>2026-03-05T19:56:34Z</time>
      </trkpt>
      <trkpt lat="50.78111" lon="2.72027">
        <ele>100</ele>
        <time>2026-03-05T19:56:40Z</time>
      </trkpt>
      <trkpt lat="50.78002" lon="2.71958">
        <ele>91</ele>
        <time>2026-03-05T19:57:01Z</time>
      </trkpt>
      <trkpt lat="50.77988" lon="2.71945">
        <ele>89</ele>
        <time>2026-03-05T19:57:04Z</time>
      </trkpt>
      <trkpt lat="50.77943" lon="2.71891">
        <ele>83</ele>
        <time>2026-03-05T19:57:14Z</time>
      </trkpt>
      <trkpt lat="50.77785" lon="2.71671">
        <ele>69</ele>
        <time>2026-03-05T19:57:52Z</time>
      </trkpt>
      <trkpt lat="50.77544" lon="2.71372">
        <ele>60</ele>
        <time>2026-03-05T19:58:46Z</time>
      </trkpt>
      <trkpt lat="50.77506" lon="2.7133">
        <ele>58</ele>
        <time>2026-03-05T19:58:54Z</time>
      </trkpt>
      <trkpt lat="50.77472" lon="2.71306">
        <ele>57</ele>
        <time>2026-03-05T19:59:01Z</time>
      </trkpt>
      <trkpt lat="50.77425" lon="2.71293">
        <ele>56</ele>
        <time>2026-03-05T19:59:10Z</time>
      </trkpt>
      <trkpt lat="50.77397" lon="2.71294">
        <ele>56</ele>
        <time>2026-03-05T19:59:15Z</time>
      </trkpt>
      <trkpt lat="50.77368" lon="2.71299">
        <ele>55</ele>
        <time>2026-03-05T19:59:20Z</time>
      </trkpt>
      <trkpt lat="50.77203" lon="2.71333">
        <ele>52</ele>
        <time>2026-03-05T19:59:49Z</time>
      </trkpt>
      <trkpt lat="50.7717" lon="2.71328">
        <ele>52</ele>
        <time>2026-03-05T19:59:55Z</time>
      </trkpt>
      <trkpt lat="50.77139" lon="2.71305">
        <ele>51</ele>
        <time>2026-03-05T20:00:01Z</time>
      </trkpt>
      <trkpt lat="50.77078" lon="2.71238">
        <ele>49</ele>
        <time>2026-03-05T20:00:15Z</time>
      </trkpt>
      <trkpt lat="50.77028" lon="2.71196">
        <ele>47</ele>
        <time>2026-03-05T20:00:25Z</time>
      </trkpt>
      <trkpt lat="50.76959" lon="2.71143">
        <ele>45</ele>
        <time>2026-03-05T20:00:38Z</time>
      </trkpt>
      <trkpt lat="50.7678" lon="2.7099">
        <ele>35</ele>
        <time>2026-03-05T20:01:15Z</time>
      </trkpt>
      <trkpt lat="50.76763" lon="2.70973">
        <ele>34</ele>
        <time>2026-03-05T20:01:18Z</time>
      </trkpt>
      <trkpt lat="50.7675" lon="2.70953">
        <ele>33</ele>
        <time>2026-03-05T20:01:21Z</time>
      </trkpt>
      <trkpt lat="50.76737" lon="2.70919">
        <ele>33</ele>
        <time>2026-03-05T20:01:26Z</time>
      </trkpt>
      <trkpt lat="50.76713" lon="2.70896">
        <ele>33</ele>
        <time>2026-03-05T20:01:31Z</time>
      </trkpt>
      <trkpt lat="50.76703" lon="2.70879">
        <ele>33</ele>
        <time>2026-03-05T20:01:33Z</time>
      </trkpt>
      <trkpt lat="50.76683" lon="2.70823">
        <ele>34</ele>
        <time>2026-03-05T20:01:41Z</time>
      </trkpt>
      <trkpt lat="50.76674" lon="2.70815">
        <ele>34</ele>
        <time>2026-03-05T20:01:42Z</time>
      </trkpt>
      <trkpt lat="50.76628" lon="2.70842">
        <ele>34</ele>
        <time>2026-03-05T20:01:51Z</time>
      </trkpt>
      <trkpt lat="50.76615" lon="2.70847">
        <ele>34</ele>
        <time>2026-03-05T20:01:54Z</time>
      </trkpt>
      <trkpt lat="50.76452" lon="2.70862">
        <ele>38</ele>
        <time>2026-03-05T20:02:23Z</time>
      </trkpt>
      <trkpt lat="50.7627" lon="2.70886">
        <ele>40</ele>
        <time>2026-03-05T20:02:55Z</time>
      </trkpt>
      <trkpt lat="50.76113" lon="2.70876">
        <ele>39</ele>
        <time>2026-03-05T20:03:23Z</time>
      </trkpt>
      <trkpt lat="50.76054" lon="2.70877">
        <ele>38</ele>
        <time>2026-03-05T20:03:34Z</time>
      </trkpt>
      <trkpt lat="50.76003" lon="2.70872">
        <ele>38</ele>
        <time>2026-03-05T20:03:43Z</time>
      </trkpt>
      <trkpt lat="50.7587" lon="2.70839">
        <ele>40</ele>
        <time>2026-03-05T20:04:07Z</time>
      </trkpt>
      <trkpt lat="50.75742" lon="2.70818">
        <ele>40</ele>
        <time>2026-03-05T20:04:30Z</time>
      </trkpt>
      <trkpt lat="50.75691" lon="2.70813">
        <ele>40</ele>
        <time>2026-03-05T20:04:39Z</time>
      </trkpt>
      <trkpt lat="50.75639" lon="2.70818">
        <ele>39</ele>
        <time>2026-03-05T20:04:48Z</time>
      </trkpt>
      <trkpt lat="50.75518" lon="2.70835">
        <ele>38</ele>
        <time>2026-03-05T20:05:10Z</time>
      </trkpt>
      <trkpt lat="50.75203" lon="2.70856">
        <ele>34</ele>
        <time>2026-03-05T20:06:06Z</time>
      </trkpt>
      <trkpt lat="50.75135" lon="2.70859">
        <ele>34</ele>
        <time>2026-03-05T20:06:18Z</time>
      </trkpt>
      <trkpt lat="50.75051" lon="2.70856">
        <ele>35</ele>
        <time>2026-03-05T20:06:33Z</time>
      </trkpt>
      <trkpt lat="50.74826" lon="2.70881">
        <ele>37</ele>
        <time>2026-03-05T20:07:13Z</time>
      </trkpt>
      <trkpt lat="50.74772" lon="2.70881">
        <ele>37</ele>
        <time>2026-03-05T20:07:22Z</time>
      </trkpt>
      <trkpt lat="50.74597" lon="2.70901">
        <ele>33</ele>
        <time>2026-03-05T20:07:54Z</time>
      </trkpt>
      <trkpt lat="50.7454" lon="2.70905">
        <ele>32</ele>
        <time>2026-03-05T20:08:04Z</time>
      </trkpt>
      <trkpt lat="50.74356" lon="2.70909">
        <ele>32</ele>
        <time>2026-03-05T20:08:37Z</time>
      </trkpt>
      <trkpt lat="50.74285" lon="2.70907">
        <ele>32</ele>
        <time>2026-03-05T20:08:49Z</time>
      </trkpt>
      <trkpt lat="50.74251" lon="2.70914">
        <ele>32</ele>
        <time>2026-03-05T20:08:55Z</time>
      </trkpt>
      <trkpt lat="50.7411" lon="2.70959">
        <ele>30</ele>
        <time>2026-03-05T20:09:21Z</time>
      </trkpt>
      <trkpt lat="50.74027" lon="2.70996">
        <ele>29</ele>
        <time>2026-03-05T20:09:36Z</time>
      </trkpt>
      <trkpt lat="50.73955" lon="2.71022">
        <ele>29</ele>
        <time>2026-03-05T20:09:49Z</time>
      </trkpt>
      <trkpt lat="50.73939" lon="2.71026">
        <ele>28</ele>
        <time>2026-03-05T20:09:52Z</time>
      </trkpt>
      <trkpt lat="50.73929" lon="2.71026">
        <ele>28</ele>
        <time>2026-03-05T20:09:54Z</time>
      </trkpt>
      <trkpt lat="50.7391" lon="2.71036">
        <ele>28</ele>
        <time>2026-03-05T20:09:58Z</time>
      </trkpt>
      <trkpt lat="50.73789" lon="2.71068">
        <ele>26</ele>
        <time>2026-03-05T20:10:19Z</time>
      </trkpt>
      <trkpt lat="50.73729" lon="2.71088">
        <ele>26</ele>
        <time>2026-03-05T20:10:30Z</time>
      </trkpt>
      <trkpt lat="50.73609" lon="2.71138">
        <ele>24</ele>
        <time>2026-03-05T20:10:52Z</time>
      </trkpt>
      <trkpt lat="50.7346" lon="2.71185">
        <ele>25</ele>
        <time>2026-03-05T20:11:19Z</time>
      </trkpt>
      <trkpt lat="50.73274" lon="2.71224">
        <ele>24</ele>
        <time>2026-03-05T20:11:53Z</time>
      </trkpt>
      <trkpt lat="50.73233" lon="2.71236">
        <ele>24</ele>
        <time>2026-03-05T20:12:00Z</time>
      </trkpt>
      <trkpt lat="50.73079" lon="2.7129">
        <ele>23</ele>
        <time>2026-03-05T20:12:28Z</time>
      </trkpt>
      <trkpt lat="50.73012" lon="2.7132">
        <ele>23</ele>
        <time>2026-03-05T20:12:41Z</time>
      </trkpt>
      <trkpt lat="50.72995" lon="2.71341">
        <ele>23</ele>
        <time>2026-03-05T20:12:45Z</time>
      </trkpt>
      <trkpt lat="50.72983" lon="2.71381">
        <ele>23</ele>
        <time>2026-03-05T20:12:50Z</time>
      </trkpt>
      <trkpt lat="50.72965" lon="2.71467">
        <ele>22</ele>
        <time>2026-03-05T20:13:00Z</time>
      </trkpt>
      <trkpt lat="50.72953" lon="2.71508">
        <ele>21</ele>
        <time>2026-03-05T20:13:05Z</time>
      </trkpt>
      <trkpt lat="50.72944" lon="2.71525">
        <ele>21</ele>
        <time>2026-03-05T20:13:07Z</time>
      </trkpt>
      <trkpt lat="50.72893" lon="2.71568">
        <ele>21</ele>
        <time>2026-03-05T20:13:18Z</time>
      </trkpt>
      <trkpt lat="50.72882" lon="2.71587">
        <ele>22</ele>
        <time>2026-03-05T20:13:20Z</time>
      </trkpt>
      <trkpt lat="50.72888" lon="2.71601">
        <ele>22</ele>
        <time>2026-03-05T20:13:22Z</time>
      </trkpt>
      <trkpt lat="50.72968" lon="2.71734">
        <ele>21</ele>
        <time>2026-03-05T20:13:43Z</time>
      </trkpt>
      <trkpt lat="50.73109" lon="2.71999">
        <ele>20</ele>
        <time>2026-03-05T20:14:22Z</time>
      </trkpt>
      <trkpt lat="50.73111" lon="2.72014">
        <ele>20</ele>
        <time>2026-03-05T20:14:24Z</time>
      </trkpt>
      <trkpt lat="50.73052" lon="2.72165">
        <ele>21</ele>
        <time>2026-03-05T20:14:44Z</time>
      </trkpt>
      <trkpt lat="50.7302" lon="2.72232">
        <ele>21</ele>
        <time>2026-03-05T20:14:53Z</time>
      </trkpt>
      <trkpt lat="50.72992" lon="2.72258">
        <ele>21</ele>
        <time>2026-03-05T20:14:59Z</time>
      </trkpt>
      <trkpt lat="50.72848" lon="2.72371">
        <ele>20</ele>
        <time>2026-03-05T20:15:28Z</time>
      </trkpt>
      <trkpt lat="50.72822" lon="2.72376">
        <ele>20</ele>
        <time>2026-03-05T20:15:32Z</time>
      </trkpt>
      <trkpt lat="50.72793" lon="2.72378">
        <ele>20</ele>
        <time>2026-03-05T20:15:37Z</time>
      </trkpt>
      <trkpt lat="50.72786" lon="2.72375">
        <ele>20</ele>
        <time>2026-03-05T20:15:39Z</time>
      </trkpt>
      <trkpt lat="50.72768" lon="2.72354">
        <ele>20</ele>
        <time>2026-03-05T20:15:43Z</time>
      </trkpt>
      <trkpt lat="50.72749" lon="2.723">
        <ele>20</ele>
        <time>2026-03-05T20:15:50Z</time>
      </trkpt>
      <trkpt lat="50.72715" lon="2.72222">
        <ele>20</ele>
        <time>2026-03-05T20:16:00Z</time>
      </trkpt>
      <trkpt lat="50.72701" lon="2.72194">
        <ele>20</ele>
        <time>2026-03-05T20:16:04Z</time>
      </trkpt>
      <trkpt lat="50.7269" lon="2.72178">
        <ele>19</ele>
        <time>2026-03-05T20:16:07Z</time>
      </trkpt>
      <trkpt lat="50.72608" lon="2.7209">
        <ele>18</ele>
        <time>2026-03-05T20:16:25Z</time>
      </trkpt>
      <trkpt lat="50.72562" lon="2.72035">
        <ele>18</ele>
        <time>2026-03-05T20:16:35Z</time>
      </trkpt>
      <trkpt lat="50.72523" lon="2.71995">
        <ele>19</ele>
        <time>2026-03-05T20:16:43Z</time>
      </trkpt>
      <trkpt lat="50.72509" lon="2.71985">
        <ele>19</ele>
        <time>2026-03-05T20:16:46Z</time>
      </trkpt>
      <trkpt lat="50.72478" lon="2.7198">
        <ele>18</ele>
        <time>2026-03-05T20:16:51Z</time>
      </trkpt>
      <trkpt lat="50.72387" lon="2.71994">
        <ele>18</ele>
        <time>2026-03-05T20:17:08Z</time>
      </trkpt>
      <trkpt lat="50.7237" lon="2.72001">
        <ele>18</ele>
        <time>2026-03-05T20:17:11Z</time>
      </trkpt>
      <trkpt lat="50.72361" lon="2.72007">
        <ele>18</ele>
        <time>2026-03-05T20:17:13Z</time>
      </trkpt>
      <trkpt lat="50.72333" lon="2.72039">
        <ele>19</ele>
        <time>2026-03-05T20:17:19Z</time>
      </trkpt>
      <trkpt lat="50.72303" lon="2.72063">
        <ele>18</ele>
        <time>2026-03-05T20:17:25Z</time>
      </trkpt>
      <trkpt lat="50.72178" lon="2.7211">
        <ele>18</ele>
        <time>2026-03-05T20:17:48Z</time>
      </trkpt>
      <trkpt lat="50.72142" lon="2.72135">
        <ele>18</ele>
        <time>2026-03-05T20:17:55Z</time>
      </trkpt>
      <trkpt lat="50.72092" lon="2.72176">
        <ele>18</ele>
        <time>2026-03-05T20:18:05Z</time>
      </trkpt>
      <trkpt lat="50.72039" lon="2.7221">
        <ele>18</ele>
        <time>2026-03-05T20:18:15Z</time>
      </trkpt>
      <trkpt lat="50.71992" lon="2.72249">
        <ele>19</ele>
        <time>2026-03-05T20:18:24Z</time>
      </trkpt>
      <trkpt lat="50.71774" lon="2.72363">
        <ele>17</ele>
        <time>2026-03-05T20:19:05Z</time>
      </trkpt>
      <trkpt lat="50.7171" lon="2.72387">
        <ele>18</ele>
        <time>2026-03-05T20:19:17Z</time>
      </trkpt>
      <trkpt lat="50.71652" lon="2.72401">
        <ele>19</ele>
        <time>2026-03-05T20:19:27Z</time>
      </trkpt>
      <trkpt lat="50.71522" lon="2.72457">
        <ele>19</ele>
        <time>2026-03-05T20:19:51Z</time>
      </trkpt>
      <trkpt lat="50.71403" lon="2.72512">
        <ele>18</ele>
        <time>2026-03-05T20:20:13Z</time>
      </trkpt>
      <trkpt lat="50.71352" lon="2.72538">
        <ele>19</ele>
        <time>2026-03-05T20:20:23Z</time>
      </trkpt>
      <trkpt lat="50.71332" lon="2.72544">
        <ele>19</ele>
        <time>2026-03-05T20:20:26Z</time>
      </trkpt>
      <trkpt lat="50.71307" lon="2.72541">
        <ele>19</ele>
        <time>2026-03-05T20:20:31Z</time>
      </trkpt>
      <trkpt lat="50.7129" lon="2.72532">
        <ele>18</ele>
        <time>2026-03-05T20:20:34Z</time>
      </trkpt>
      <trkpt lat="50.71274" lon="2.72506">
        <ele>18</ele>
        <time>2026-03-05T20:20:38Z</time>
      </trkpt>
      <trkpt lat="50.71268" lon="2.72491">
        <ele>18</ele>
        <time>2026-03-05T20:20:40Z</time>
      </trkpt>
      <trkpt lat="50.71259" lon="2.72482">
        <ele>18</ele>
        <time>2026-03-05T20:20:42Z</time>
      </trkpt>
      <trkpt lat="50.71244" lon="2.72486">
        <ele>18</ele>
        <time>2026-03-05T20:20:45Z</time>
      </trkpt>
      <trkpt lat="50.70982" lon="2.72812">
        <ele>16</ele>
        <time>2026-03-05T20:21:44Z</time>
      </trkpt>
      <trkpt lat="50.7073" lon="2.73334">
        <ele>16</ele>
        <time>2026-03-05T20:22:58Z</time>
      </trkpt>
      <trkpt lat="50.70597" lon="2.73602">
        <ele>16</ele>
        <time>2026-03-05T20:23:36Z</time>
      </trkpt>
      <trkpt lat="50.70594" lon="2.73617">
        <ele>16</ele>
        <time>2026-03-05T20:23:38Z</time>
      </trkpt>
      <trkpt lat="50.706" lon="2.73644">
        <ele>16</ele>
        <time>2026-03-05T20:23:41Z</time>
      </trkpt>
      <trkpt lat="50.70686" lon="2.73789">
        <ele>16</ele>
        <time>2026-03-05T20:24:04Z</time>
      </trkpt>
      <trkpt lat="50.70688" lon="2.73797">
        <ele>16</ele>
        <time>2026-03-05T20:24:05Z</time>
      </trkpt>
      <trkpt lat="50.70685" lon="2.73814">
        <ele>16</ele>
        <time>2026-03-05T20:24:07Z</time>
      </trkpt>
      <trkpt lat="50.70527" lon="2.74028">
        <ele>15</ele>
        <time>2026-03-05T20:24:44Z</time>
      </trkpt>
      <trkpt lat="50.70479" lon="2.74107">
        <ele>16</ele>
        <time>2026-03-05T20:24:56Z</time>
      </trkpt>
      <trkpt lat="50.70452" lon="2.74134">
        <ele>16</ele>
        <time>2026-03-05T20:25:02Z</time>
      </trkpt>
      <trkpt lat="50.70311" lon="2.7423">
        <ele>16</ele>
        <time>2026-03-05T20:25:29Z</time>
      </trkpt>
      <trkpt lat="50.70308" lon="2.74236">
        <ele>16</ele>
        <time>2026-03-05T20:25:30Z</time>
      </trkpt>
      <trkpt lat="50.70304" lon="2.7426">
        <ele>16</ele>
        <time>2026-03-05T20:25:33Z</time>
      </trkpt>
      <trkpt lat="50.70338" lon="2.74379">
        <ele>16</ele>
        <time>2026-03-05T20:25:48Z</time>
      </trkpt>
      <trkpt lat="50.70377" lon="2.74504">
        <ele>16</ele>
        <time>2026-03-05T20:26:03Z</time>
      </trkpt>
      <trkpt lat="50.70376" lon="2.74539">
        <ele>16</ele>
        <time>2026-03-05T20:26:07Z</time>
      </trkpt>
      <trkpt lat="50.70361" lon="2.74554">
        <ele>16</ele>
        <time>2026-03-05T20:26:10Z</time>
      </trkpt>
      <trkpt lat="50.70279" lon="2.74602">
        <ele>17</ele>
        <time>2026-03-05T20:26:26Z</time>
      </trkpt>
      <trkpt lat="50.70271" lon="2.74603">
        <ele>17</ele>
        <time>2026-03-05T20:26:27Z</time>
      </trkpt>
      <trkpt lat="50.702" lon="2.74578">
        <ele>16</ele>
        <time>2026-03-05T20:26:40Z</time>
      </trkpt>
      <trkpt lat="50.70176" lon="2.74576">
        <ele>16</ele>
        <time>2026-03-05T20:26:45Z</time>
      </trkpt>
      <trkpt lat="50.70161" lon="2.74581">
        <ele>16</ele>
        <time>2026-03-05T20:26:47Z</time>
      </trkpt>
      <trkpt lat="50.7014" lon="2.74598">
        <ele>16</ele>
        <time>2026-03-05T20:26:51Z</time>
      </trkpt>
      <trkpt lat="50.70043" lon="2.74694">
        <ele>16</ele>
        <time>2026-03-05T20:27:12Z</time>
      </trkpt>
      <trkpt lat="50.70002" lon="2.74729">
        <ele>17</ele>
        <time>2026-03-05T20:27:20Z</time>
      </trkpt>
      <trkpt lat="50.69998" lon="2.7474">
        <ele>17</ele>
        <time>2026-03-05T20:27:22Z</time>
      </trkpt>
      <trkpt lat="50.70003" lon="2.74761">
        <ele>17</ele>
        <time>2026-03-05T20:27:24Z</time>
      </trkpt>
      <trkpt lat="50.70024" lon="2.74822">
        <ele>17</ele>
        <time>2026-03-05T20:27:32Z</time>
      </trkpt>
      <trkpt lat="50.70065" lon="2.74965">
        <ele>16</ele>
        <time>2026-03-05T20:27:50Z</time>
      </trkpt>
      <trkpt lat="50.70071" lon="2.74997">
        <ele>16</ele>
        <time>2026-03-05T20:27:53Z</time>
      </trkpt>
      <trkpt lat="50.70073" lon="2.75042">
        <ele>16</ele>
        <time>2026-03-05T20:27:58Z</time>
      </trkpt>
      <trkpt lat="50.7008" lon="2.75082">
        <ele>16</ele>
        <time>2026-03-05T20:28:03Z</time>
      </trkpt>
      <trkpt lat="50.70081" lon="2.7511">
        <ele>16</ele>
        <time>2026-03-05T20:28:06Z</time>
      </trkpt>
      <trkpt lat="50.70072" lon="2.75132">
        <ele>16</ele>
        <time>2026-03-05T20:28:09Z</time>
      </trkpt>
      <trkpt lat="50.70021" lon="2.75188">
        <ele>17</ele>
        <time>2026-03-05T20:28:20Z</time>
      </trkpt>
      <trkpt lat="50.70018" lon="2.75203">
        <ele>17</ele>
        <time>2026-03-05T20:28:22Z</time>
      </trkpt>
      <trkpt lat="50.70025" lon="2.75232">
        <ele>16</ele>
        <time>2026-03-05T20:28:26Z</time>
      </trkpt>
      <trkpt lat="50.70084" lon="2.75352">
        <ele>16</ele>
        <time>2026-03-05T20:28:43Z</time>
      </trkpt>
      <trkpt lat="50.70123" lon="2.75405">
        <ele>16</ele>
        <time>2026-03-05T20:28:52Z</time>
      </trkpt>
      <trkpt lat="50.70265" lon="2.75578">
        <ele>18</ele>
        <time>2026-03-05T20:29:24Z</time>
      </trkpt>
      <trkpt lat="50.70404" lon="2.75733">
        <ele>15</ele>
        <time>2026-03-05T20:29:54Z</time>
      </trkpt>
      <trkpt lat="50.70421" lon="2.75754">
        <ele>15</ele>
        <time>2026-03-05T20:29:58Z</time>
      </trkpt>
      <trkpt lat="50.70424" lon="2.75761">
        <ele>15</ele>
        <time>2026-03-05T20:29:59Z</time>
      </trkpt>
      <trkpt lat="50.70424" lon="2.75784">
        <ele>15</ele>
        <time>2026-03-05T20:30:01Z</time>
      </trkpt>
      <trkpt lat="50.70419" lon="2.7581">
        <ele>16</ele>
        <time>2026-03-05T20:30:04Z</time>
      </trkpt>
      <trkpt lat="50.70329" lon="2.76119">
        <ele>16</ele>
        <time>2026-03-05T20:30:43Z</time>
      </trkpt>
      <trkpt lat="50.70326" lon="2.76136">
        <ele>16</ele>
        <time>2026-03-05T20:30:45Z</time>
      </trkpt>
      <trkpt lat="50.70319" lon="2.76152">
        <ele>16</ele>
        <time>2026-03-05T20:30:47Z</time>
      </trkpt>
      <trkpt lat="50.70311" lon="2.76248">
        <ele>17</ele>
        <time>2026-03-05T20:30:58Z</time>
      </trkpt>
      <trkpt lat="50.70317" lon="2.76259">
        <ele>17</ele>
        <time>2026-03-05T20:31:00Z</time>
      </trkpt>
      <trkpt lat="50.70362" lon="2.76291">
        <ele>16</ele>
        <time>2026-03-05T20:31:08Z</time>
      </trkpt>
      <trkpt lat="50.70369" lon="2.76321">
        <ele>16</ele>
        <time>2026-03-05T20:31:12Z</time>
      </trkpt>
      <trkpt lat="50.70358" lon="2.76456">
        <ele>16</ele>
        <time>2026-03-05T20:31:27Z</time>
      </trkpt>
      <trkpt lat="50.70502" lon="2.76489">
        <ele>18</ele>
        <time>2026-03-05T20:31:53Z</time>
      </trkpt>
      <trkpt lat="50.70514" lon="2.76495">
        <ele>18</ele>
        <time>2026-03-05T20:31:55Z</time>
      </trkpt>
      <trkpt lat="50.70536" lon="2.76512">
        <ele>18</ele>
        <time>2026-03-05T20:32:00Z</time>
      </trkpt>
      <trkpt lat="50.70364" lon="2.77282">
        <ele>16</ele>
        <time>2026-03-05T20:33:32Z</time>
      </trkpt>
      <trkpt lat="50.70351" lon="2.7731">
        <ele>17</ele>
        <time>2026-03-05T20:33:36Z</time>
      </trkpt>
      <trkpt lat="50.70235" lon="2.77484">
        <ele>18</ele>
        <time>2026-03-05T20:34:04Z</time>
      </trkpt>
      <trkpt lat="50.70223" lon="2.77516">
        <ele>17</ele>
        <time>2026-03-05T20:34:08Z</time>
      </trkpt>
      <trkpt lat="50.7021" lon="2.77583">
        <ele>16</ele>
        <time>2026-03-05T20:34:16Z</time>
      </trkpt>
      <trkpt lat="50.70156" lon="2.77555">
        <ele>17</ele>
        <time>2026-03-05T20:34:26Z</time>
      </trkpt>
      <trkpt lat="50.70081" lon="2.77512">
        <ele>19</ele>
        <time>2026-03-05T20:34:41Z</time>
      </trkpt>
      <trkpt lat="50.70038" lon="2.77476">
        <ele>19</ele>
        <time>2026-03-05T20:34:49Z</time>
      </trkpt>
      <trkpt lat="50.70042" lon="2.77454">
        <ele>18</ele>
        <time>2026-03-05T20:34:52Z</time>
      </trkpt>
      <trkpt lat="50.70034" lon="2.77381">
        <ele>17</ele>
        <time>2026-03-05T20:35:00Z</time>
      </trkpt>
      <trkpt lat="50.7001" lon="2.77263">
        <ele>18</ele>
        <time>2026-03-05T20:35:14Z</time>
      </trkpt>
      <trkpt lat="50.69948" lon="2.77055">
        <ele>18</ele>
        <time>2026-03-05T20:35:40Z</time>
      </trkpt>
    </trkseg>
  </trk>
</gpx>